Flight Track Log - Related Links

Times and Time Zones

All times are in EDT time to prevent confusion due to time zone crossing. See the UAL139 flight status page for this flight to view local times or setup timezone preferences in your user account.

Time Position Orientation Groundspeed Altitude Reporting Facility
EDT Latitude Longitude Course Direction KTS MPH feet Rate Location/Type
Wed 03:26:30 PM 39.8630 -104.6960 322° Northwest 129 148 5,100  Level FlightAware ADS-B
Wed 03:26:49 PM 39.8781 -104.6960 360° North 152 175 5,100 686 Level FlightAware ADS-B
Wed 03:27:05 PM 39.8934 -104.6960 360° North 209 241 5,500 1,680 Climbing FlightAware ADS-B
Wed 03:27:14 PM 39.9026 -104.6960 360° North 212 244 5,800 2,000 Climbing FlightAware ADS-B
Wed 03:27:20 PM 39.9083 -104.6960 360° North 213 245 6,000 2,211 Climbing FlightAware ADS-B
Wed 03:27:33 PM 39.9215 -104.6970 357° North 215 247 6,500 1,750 Climbing FlightAware ADS-B
Wed 03:27:44 PM 39.9323 -104.6980 356° North 226 260 6,700 571 Climbing FlightAware ADS-B
Wed 03:27:54 PM 39.9435 -104.6990 356° North 240 276 6,700 286 Level FlightAware ADS-B
Wed 03:28:05 PM 39.9565 -104.7000 357° North 256 295 6,800 1,500 Climbing FlightAware ADS-B
Wed 03:28:22 PM 39.9760 -104.7020 356° North 263 303 7,400 1,742 Climbing FlightAware ADS-B
Wed 03:28:36 PM 39.9937 -104.7030 358° North 274 315 7,700 1,500 Climbing FlightAware ADS-B
Wed 03:28:50 PM 40.0113 -104.7050 355° North 283 326 8,100 2,069 Climbing FlightAware ADS-B
Wed 03:29:05 PM 40.0321 -104.7060 358° North 286 329 8,700 2,129 Climbing FlightAware ADS-B
Wed 03:29:21 PM 40.0525 -104.7070 358° North 286 329 9,200 1,929 Climbing FlightAware ADS-B
Wed 03:29:33 PM 40.0690 -104.7080 357° North 287 330 9,600 1,385 Climbing FlightAware ADS-B
Wed 03:29:47 PM 40.0871 -104.7090 358° North 294 338 9,800 1,500 Climbing FlightAware ADS-B
Wed 03:30:21 PM 40.1364 -104.7100 359° North 312 359 10,800 1,500 Climbing FlightAware ADS-B
Wed 03:30:51 PM 40.1831 -104.7100 360° North 346 398 11,400 1,200 Climbing FlightAware ADS-B
Wed 03:30:56 PM 40.1906 -104.7100 360° North 351 404 11,500 800 Climbing FlightAware ADS-B
Wed 03:31:06 PM 40.2061 -104.7110 357° North 359 413 11,600 800 Climbing FlightAware ADS-B
Wed 03:31:11 PM 40.2151 -104.7130 350° North 363 418 11,700 1,500 Climbing FlightAware ADS-B
Wed 03:31:18 PM 40.2273 -104.7160 349° North 368 423 11,900 1,500 Climbing FlightAware ADS-B
Wed 03:31:27 PM 40.2410 -104.7220 342° North 372 428 12,100 1,500 Climbing FlightAware ADS-B
Wed 03:31:34 PM 40.2525 -104.7290 335° Northwest 374 430 12,300 2,108 Climbing FlightAware ADS-B
Wed 03:32:04 PM 40.2995 -104.7600 333° Northwest 381 438 13,400 2,200 Climbing FlightAware ADS-B
Wed 03:32:34 PM 40.3476 -104.7920 333° Northwest 388 447 14,500 2,200 Climbing FlightAware ADS-B
Wed 03:33:04 PM 40.3960 -104.8240 333° Northwest 393 452 15,600 2,100 Climbing FlightAware ADS-B
Wed 03:33:34 PM 40.4456 -104.8560 334° Northwest 401 461 16,600 1,967 Climbing FlightAware ADS-B
Wed 03:34:05 PM 40.4964 -104.8900 333° Northwest 406 467 17,600 2,066 Climbing FlightAware ADS-B
Wed 03:34:35 PM 40.5474 -104.9240 333° Northwest 409 471 18,700 2,100 Climbing FlightAware ADS-B
Wed 03:35:05 PM 40.5988 -104.9580 333° Northwest 415 478 19,700 1,900 Climbing FlightAware ADS-B
Wed 03:35:35 PM 40.6508 -104.9920 334° Northwest 419 482 20,600 1,714 Climbing FlightAware ADS-B
Wed 03:35:54 PM 40.6820 -105.0130 333° Northwest 422 486 21,100 1,615 Climbing FlightAware ADS-B
Wed 03:36:27 PM 40.7362 -105.0620 326° Northwest 420 483 22,000 1,594 Climbing FlightAware ADS-B
Wed 03:36:58 PM 40.7841 -105.1090 323° Northwest 428 493 22,800 1,652 Climbing FlightAware ADS-B
Wed 03:37:36 PM 40.8452 -105.1700 323° Northwest 432 497 23,900 1,615 Climbing FlightAware ADS-B
Wed 03:38:16 PM 40.9080 -105.2350 322° Northwest 435 501 24,900 1,342 Climbing FlightAware ADS-B
Wed 03:38:52 PM 40.9640 -105.2960 321° Northwest 441 507 25,600 1,135 Climbing FlightAware ADS-B
Wed 03:39:30 PM 41.0230 -105.3630 319° Northwest 449 517 26,300 1,114 Climbing FlightAware ADS-B
Wed 03:40:02 PM 41.0750 -105.4210 320° Northwest 456 525 26,900 1,164 Climbing FlightAware ADS-B
Wed 03:40:37 PM 41.1290 -105.4830 319° Northwest 463 533 27,600 1,250 Climbing FlightAware ADS-B
Wed 03:41:14 PM 41.1910 -105.5540 319° Northwest 466 536 28,400 1,250 Climbing FlightAware ADS-B
Wed 03:41:49 PM 41.2470 -105.6180 319° Northwest 470 541 29,100 1,200 Climbing FlightAware ADS-B
Wed 03:42:24 PM 41.3060 -105.6840 320° Northwest 474 545 29,800 1,217 Climbing FlightAware ADS-B
Wed 03:42:58 PM 41.3580 -105.7580 313° West 471 542 30,500 1,147 Climbing FlightAware ADS-B
Wed 03:43:32 PM 41.4020 -105.8380 306° West 474 545 31,100 1,200 Climbing FlightAware ADS-B
Wed 03:44:08 PM 41.4480 -105.9210 306° West 471 542 31,900 1,167 Climbing FlightAware ADS-B
Wed 03:44:44 PM 41.4940 -106.0050 306° West 473 544 32,500 1,397 Climbing FlightAware ADS-B
Wed 03:45:21 PM 41.5410 -106.0900 306° West 465 535 33,600 1,588 Climbing FlightAware ADS-B
Wed 03:45:52 PM 41.5810 -106.1630 306° West 461 531 34,300 1,164 Climbing FlightAware ADS-B
Wed 03:46:28 PM 41.6260 -106.2460 306° West 459 528 34,900 1,000 Climbing FlightAware ADS-B
Wed 03:47:04 PM 41.6720 -106.3290 307° West 458 527 35,500 943 Climbing FlightAware ADS-B
Wed 03:47:38 PM 41.7130 -106.4050 306° West 459 528 36,000 370 Climbing FlightAware ADS-B
Wed 03:48:25 PM 41.7660 -106.5060 305° West 464 534 36,000  Level FlightAware ADS-B
Wed 03:49:03 PM 41.8060 -106.5820 305° West 464 534 36,000  Level FlightAware ADS-B
Wed 03:49:39 PM 41.8440 -106.6540 305° West 464 534 36,000  Level FlightAware ADS-B
Wed 03:50:15 PM 41.8820 -106.7270 305° West 464 534 36,000  Level FlightAware ADS-B
Wed 03:50:49 PM 41.9170 -106.7950 305° West 464 534 36,000  Level FlightAware ADS-B
Wed 03:51:25 PM 41.9550 -106.8670 305° West 464 534 36,000  Level FlightAware ADS-B
Wed 03:52:01 PM 41.9920 -106.9400 304° West 464 534 36,000  Level FlightAware ADS-B
Wed 03:52:38 PM 42.0310 -107.0140 305° West 464 534 36,000  Level FlightAware ADS-B
Wed 03:53:14 PM 42.0690 -107.0860 305° West 464 534 36,000  Level FlightAware ADS-B
Wed 03:53:50 PM 42.1060 -107.1590 304° West 464 534 36,000  Level FlightAware ADS-B
Wed 03:54:26 PM 42.1440 -107.2320 305° West 464 534 36,000  Level FlightAware ADS-B
Wed 03:55:14 PM 42.1940 -107.3280 305° West 464 534 36,000  Level FlightAware ADS-B
Wed 03:55:51 PM 42.2330 -107.4030 305° West 464 534 36,000  Level FlightAware ADS-B
Wed 03:56:28 PM 42.2720 -107.4780 305° West 464 534 36,000  Level FlightAware ADS-B
Wed 03:57:04 PM 42.3100 -107.5500 306° West 464 534 36,000  Level FlightAware ADS-B
Wed 03:57:41 PM 42.3480 -107.6250 304° West 464 534 36,000  Level FlightAware ADS-B
Wed 03:58:13 PM 42.4981 -107.8872 304° West 466 536 36,000  Level Salt Lake Center
Wed 03:59:14 PM 42.5697 -108.0272 305° West 471 542 36,000  Level Salt Lake Center
Wed 04:00:16 PM 42.6528 -108.1906 305° West 472 543 36,000  Level Salt Lake Center
Wed 04:01:18 PM 42.7239 -108.3322 304° West 475 547 36,000  Level Salt Lake Center
Wed 04:02:20 PM 42.8075 -108.4953 305° West 473 544 36,000  Level Salt Lake Center
Wed 04:03:22 PM 42.8794 -108.6378 305° West 476 548 36,000  Level Salt Lake Center
Wed 04:04:24 PM 42.9622 -108.8056 304° West 479 551 36,000  Level Salt Lake Center
Wed 04:05:25 PM 43.0331 -108.9461 305° West 473 544 36,000  Level Salt Lake Center
Wed 04:06:27 PM 43.1172 -109.1156 304° West 480 552 36,000  Level Salt Lake Center
Wed 04:07:29 PM 43.1889 -109.2600 304° West 481 554 36,000  Level Salt Lake Center
Wed 04:08:31 PM 43.2606 -109.4058 304° West 483 556 36,000  Level Salt Lake Center
Wed 04:09:33 PM 43.3417 -109.5792 303° West 484 557 36,000  Level Salt Lake Center
Wed 04:10:35 PM 43.4272 -109.7150 311° West 493 567 36,000  Level Salt Lake Center
Wed 04:11:36 PM 43.5319 -109.8728 313° West 491 565 36,000  Level Salt Lake Center
Wed 04:12:38 PM 43.6042 -110.0228 304° West 499 574 36,000  Level Salt Lake Center
Wed 04:13:40 PM 43.6789 -110.2028 300° West 486 559 36,000  Level Salt Lake Center
Wed 04:14:42 PM 43.7419 -110.3614 299° West 491 565 36,000  Level Salt Lake Center
Wed 04:15:44 PM 43.8056 -110.5189 299° West 491 565 36,000  Level Salt Lake Center
Wed 04:16:46 PM 43.8783 -110.7056 298° West 492 566 36,000  Level Salt Lake Center
Wed 04:17:47 PM 43.9408 -110.8642 299° West 488 562 36,000  Level Salt Lake Center
Wed 04:18:49 PM 44.0106 -111.0500 298° West 486 559 36,000  Level Salt Lake Center
Wed 04:19:51 PM 44.0725 -111.2072 299° West 483 556 36,000  Level Salt Lake Center
Wed 04:20:53 PM 44.1442 -111.3922 298° West 484 557 36,000  Level Salt Lake Center
Wed 04:21:55 PM 44.2064 -111.5522 299° West 486 559 36,000  Level Salt Lake Center
Wed 04:22:57 PM 44.2669 -111.7142 298° West 488 562 36,000  Level Salt Lake Center
Wed 04:23:59 PM 44.3381 -111.9003 298° West 485 558 36,000  Level Salt Lake Center
Wed 04:25:00 PM 44.3975 -112.0594 298° West 482 555 36,000  Level Salt Lake Center
Wed 04:26:02 PM 44.4683 -112.2458 298° West 483 556 36,000  Level Salt Lake Center
Wed 04:27:04 PM 44.5281 -112.4053 298° West 483 556 36,000  Level Salt Lake Center
Wed 04:28:06 PM 44.5867 -112.5656 297° West 481 554 36,000  Level Salt Lake Center
Wed 04:29:08 PM 44.6553 -112.7525 297° West 482 555 36,000  Level Salt Lake Center
Wed 04:30:10 PM 44.7142 -112.9147 297° West 484 557 36,000  Level Salt Lake Center
Wed 04:31:12 PM 44.7825 -113.1050 297° West 488 562 36,000  Level Salt Lake Center
Wed 04:32:14 PM 44.8425 -113.2675 298° West 489 563 36,000  Level Salt Lake Center
Wed 04:33:15 PM 44.9100 -113.4581 297° West 487 560 36,000  Level Salt Lake Center
Wed 04:34:17 PM 44.9697 -113.6236 297° West 490 564 36,000  Level Salt Lake Center
Wed 04:35:19 PM 45.0383 -113.8164 297° West 492 566 36,000  Level Salt Lake Center
Wed 04:36:21 PM 45.0958 -113.9811 296° West 489 563 36,000  Level Salt Lake Center
Wed 04:37:23 PM 45.1564 -114.1447 298° West 489 563 36,000  Level Salt Lake Center
Wed 04:38:25 PM 45.2208 -114.3383 295° West 487 560 36,000  Level Salt Lake Center
Wed 04:43:39 PM 45.5340 -115.2640 295° West 488 562 36,000  Level FlightAware ADS-B
Wed 04:44:15 PM 45.5680 -115.3660 295° West 486 559 36,000  Level FlightAware ADS-B
Wed 04:44:49 PM 45.6020 -115.4670 296° West 484 557 36,000  Level FlightAware ADS-B
Wed 04:45:26 PM 45.6360 -115.5710 295° West 482 555 36,000  Level FlightAware ADS-B
Wed 04:45:57 PM 45.6660 -115.6620 295° West 481 554 36,000  Level FlightAware ADS-B
Wed 04:46:47 PM 45.7100 -115.7950 295° West 482 555 36,000  Level FlightAware ADS-B
Wed 04:47:22 PM 45.7460 -115.9050 295° West 480 552 36,000  Level FlightAware ADS-B
Wed 04:47:58 PM 45.7800 -116.0110 295° West 481 554 36,000  Level FlightAware ADS-B
Wed 04:48:34 PM 45.8130 -116.1130 295° West 481 554 36,000  Level FlightAware ADS-B
Wed 04:49:06 PM 45.8420 -116.2040 295° West 482 555 36,000  Level FlightAware ADS-B
Wed 04:49:42 PM 45.8770 -116.3110 295° West 481 554 36,000  Level FlightAware ADS-B
Wed 04:50:18 PM 45.9100 -116.4150 295° West 479 551 36,000  Level FlightAware ADS-B
Wed 04:50:54 PM 45.9430 -116.5180 295° West 476 548 36,000  Level FlightAware ADS-B
Wed 04:51:25 PM 45.9710 -116.6050 295° West 475 547 36,000  Level FlightAware ADS-B
Wed 04:52:03 PM 46.0050 -116.7150 294° West 473 544 36,000  Level FlightAware ADS-B
Wed 04:52:38 PM 46.0370 -116.8150 295° West 472 543 36,000  Level FlightAware ADS-B
Wed 04:53:14 PM 46.0690 -116.9190 294° West 474 545 36,000  Level FlightAware ADS-B
Wed 04:53:47 PM 46.0990 -117.0160 294° West 474 545 36,000  Level FlightAware ADS-B
Wed 04:54:31 PM 46.1380 -117.1380 295° West 474 545 36,000  Level FlightAware ADS-B
Wed 04:55:07 PM 46.1700 -117.2390 295° West 473 544 36,000  Level FlightAware ADS-B
Wed 04:55:45 PM 46.2000 -117.3320 295° West 473 544 36,000  Level FlightAware ADS-B
Wed 04:56:19 PM 46.2410 -117.4490 297° West 475 547 36,000  Level FlightAware ADS-B
Wed 04:56:55 PM 46.2740 -117.5510 295° West 473 544 36,000  Level FlightAware ADS-B
Wed 04:57:32 PM 46.3080 -117.6540 296° West 471 542 36,000  Level FlightAware ADS-B
Wed 04:58:04 PM 46.3380 -117.7450 296° West 470 541 36,000  Level FlightAware ADS-B
Wed 04:58:40 PM 46.3710 -117.8460 295° West 471 542 36,000  Level FlightAware ADS-B
Wed 04:59:16 PM 46.4050 -117.9510 295° West 471 542 36,000  Level FlightAware ADS-B
Wed 04:59:52 PM 46.4380 -118.0550 295° West 472 543 36,000  Level FlightAware ADS-B
Wed 05:00:25 PM 46.4680 -118.1470 295° West 472 543 36,000  Level FlightAware ADS-B
Wed 05:01:00 PM 46.5010 -118.2490 295° West 471 542 36,000  Level FlightAware ADS-B
Wed 05:01:38 PM 46.5350 -118.3570 295° West 468 539 36,000  Level FlightAware ADS-B
Wed 05:02:12 PM 46.5670 -118.4560 295° West 464 534 36,000  Level FlightAware ADS-B
Wed 05:02:47 PM 46.5970 -118.5520 294° West 466 536 36,000  Level FlightAware ADS-B
Wed 05:03:20 PM 46.6280 -118.6490 295° West 466 536 36,000  Level FlightAware ADS-B
Wed 05:03:56 PM 46.6600 -118.7510 295° West 468 539 36,000  Level FlightAware ADS-B
Wed 05:04:32 PM 46.6920 -118.8520 295° West 471 542 36,000  Level FlightAware ADS-B
Wed 05:04:42 PM 46.7014 -118.8830 294° West 471 542 36,000  Level FlightAware ADS-B
Wed 05:05:13 PM 46.7290 -118.9710 295° West 470 541 36,000  Level FlightAware ADS-B
Wed 05:05:49 PM 46.7610 -119.0750 294° West 471 542 36,000  Level FlightAware ADS-B
Wed 05:06:20 PM 46.7891 -119.1650 295° West 467 537 36,000  Level FlightAware ADS-B
Wed 05:06:52 PM 46.8168 -119.2550 294° West 469 540 36,000  Level FlightAware ADS-B
Wed 05:07:22 PM 46.8440 -119.3440 294° West 469 540 36,000  Level FlightAware ADS-B
Wed 05:07:53 PM 46.8709 -119.4310 294° West 469 540 36,000  Level FlightAware ADS-B
Wed 05:08:23 PM 46.8972 -119.5180 294° West 467 537 36,000  Level FlightAware ADS-B
Wed 05:08:53 PM 46.9240 -119.6060 294° West 467 537 36,000  Level FlightAware ADS-B
Wed 05:09:24 PM 46.9504 -119.6930 294° West 467 537 36,000  Level FlightAware ADS-B
Wed 05:09:56 PM 46.9783 -119.7850 294° West 465 535 36,000  Level FlightAware ADS-B
Wed 05:10:26 PM 47.0044 -119.8720 294° West 463 533 36,000  Level FlightAware ADS-B
Wed 05:10:56 PM 47.0302 -119.9580 294° West 463 533 36,000  Level FlightAware ADS-B
Wed 05:11:28 PM 47.0573 -120.0490 294° West 464 534 36,000  Level FlightAware ADS-B
Wed 05:11:58 PM 47.0836 -120.1370 294° West 465 535 36,000  Level FlightAware ADS-B
Wed 05:12:28 PM 47.1093 -120.2240 293° West 464 534 36,000  Level FlightAware ADS-B
Wed 05:12:59 PM 47.1358 -120.3130 294° West 464 534 36,000  Level FlightAware ADS-B
Wed 05:13:29 PM 47.1611 -120.3990 293° West 463 533 36,000  Level FlightAware ADS-B
Wed 05:13:59 PM 47.1867 -120.4860 293° West 464 534 36,000  Level FlightAware ADS-B
Wed 05:14:29 PM 47.2120 -120.5730 293° West 465 535 36,000  Level FlightAware ADS-B
Wed 05:15:00 PM 47.2375 -120.6610 293° West 465 535 36,000  Level FlightAware ADS-B
Wed 05:15:30 PM 47.2630 -120.7480 293° West 466 536 36,000  Level FlightAware ADS-B
Wed 05:16:00 PM 47.2883 -120.8360 293° West 467 537 36,000  Level FlightAware ADS-B
Wed 05:16:30 PM 47.3139 -120.9250 293° West 467 537 36,000  Level FlightAware ADS-B
Wed 05:17:00 PM 47.3390 -121.0120 293° West 467 537 36,000  Level FlightAware ADS-B
Wed 05:17:30 PM 47.3644 -121.1010 293° West 470 541 36,000  Level FlightAware ADS-B
Wed 05:18:01 PM 47.3900 -121.1910 293° West 472 543 36,000  Level FlightAware ADS-B
Wed 05:18:32 PM 47.4160 -121.2820 293° West 470 541 36,000  Level FlightAware ADS-B
Wed 05:19:02 PM 47.4412 -121.3710 293° West 467 537 36,000  Level FlightAware ADS-B
Wed 05:19:32 PM 47.4658 -121.4580 293° West 464 534 36,000  Level FlightAware ADS-B
Wed 05:20:02 PM 47.4905 -121.5460 293° West 465 535 36,000  Level FlightAware ADS-B
Wed 05:20:32 PM 47.5151 -121.6340 293° West 466 536 36,000  Level FlightAware ADS-B
Wed 05:21:02 PM 47.5399 -121.7230 292° West 468 539 36,000  Level FlightAware ADS-B
Wed 05:21:32 PM 47.5648 -121.8130 292° West 471 542 36,000  Level FlightAware ADS-B
Wed 05:22:02 PM 47.5896 -121.9020 292° West 471 542 36,000  Level FlightAware ADS-B
Wed 05:22:32 PM 47.6144 -121.9920 292° West 470 541 36,000  Level FlightAware ADS-B
Wed 05:23:02 PM 47.6388 -122.0810 292° West 468 539 36,000  Level FlightAware ADS-B
Wed 05:23:33 PM 47.6635 -122.1710 292° West 470 541 36,000  Level FlightAware ADS-B
Wed 05:24:03 PM 47.6879 -122.2610 292° West 472 543 36,000  Level FlightAware ADS-B
Wed 05:24:33 PM 47.7124 -122.3510 292° West 471 542 36,000  Level FlightAware ADS-B
Wed 05:25:03 PM 47.7370 -122.4420 292° West 471 542 36,000  Level FlightAware ADS-B
Wed 05:25:34 PM 47.7622 -122.5350 292° West 471 542 36,000  Level FlightAware ADS-B
Wed 05:26:05 PM 47.7869 -122.6280 292° West 471 542 36,000  Level FlightAware ADS-B
Wed 05:26:35 PM 47.8111 -122.7180 292° West 472 543 36,000  Level FlightAware ADS-B
Wed 05:27:08 PM 47.8371 -122.8160 292° West 473 544 36,000  Level FlightAware ADS-B
Wed 05:27:38 PM 47.8613 -122.9070 292° West 472 543 36,000  Level FlightAware ADS-B
Wed 05:28:08 PM 47.8852 -122.9970 292° West 471 542 36,000  Level FlightAware ADS-B
Wed 05:28:38 PM 47.9090 -123.0880 291° West 471 542 36,000  Level FlightAware ADS-B
Wed 05:29:13 PM 47.9366 -123.1930 291° West 472 543 36,000  Level FlightAware ADS-B
Wed 05:30:04 PM 47.9768 -123.3480 291° West 472 543 36,000  Level FlightAware ADS-B
Wed 05:30:34 PM 48.0005 -123.4390 291° West 472 543 36,000  Level FlightAware ADS-B
Wed 05:31:04 PM 48.0240 -123.5300 291° West 470 541 36,000  Level FlightAware ADS-B
Wed 05:31:34 PM 48.0475 -123.6210 291° West 472 543 36,000  Level FlightAware ADS-B
Wed 05:32:23 PM 48.0852 -123.7690 291° West 471 542 36,000  Level FlightAware ADS-B
Wed 05:32:55 PM 48.1100 -123.8660 291° West 472 543 36,000  Level FlightAware ADS-B
Wed 05:33:25 PM 48.1332 -123.9580 291° West 472 543 36,000  Level FlightAware ADS-B
Wed 05:33:55 PM 48.1565 -124.0500 291° West 473 544 36,000  Level FlightAware ADS-B
Wed 05:34:29 PM 48.1823 -124.1530 291° West 474 545 36,000  Level FlightAware ADS-B
Wed 05:34:59 PM 48.2055 -124.2460 291° West 477 549 36,000  Level FlightAware ADS-B
Wed 05:35:29 PM 48.2288 -124.3390 291° West 479 551 36,000  Level FlightAware ADS-B
Wed 05:35:59 PM 48.2523 -124.4340 290° West 480 552 36,000  Level FlightAware ADS-B
Wed 05:36:40 PM 48.2840 -124.5610 291° West 480 552 36,000  Level FlightAware ADS-B
Wed 05:36:57 PM 48.2968 -124.6140 290° West 481 554 36,000  Level FlightAware ADS-B
Wed 05:37:31 PM 48.3214 -124.7200 289° West 479 551 36,000  Level FlightAware ADS-B
Wed 05:38:07 PM 48.3457 -124.8320 288° West 479 551 36,000  Level FlightAware ADS-B
Wed 05:38:37 PM 48.3664 -124.9270 288° West 478 550 36,000  Level FlightAware ADS-B
Wed 05:39:07 PM 48.3875 -125.0230 288° West 476 548 36,000  Level FlightAware ADS-B
Wed 05:39:37 PM 48.4070 -125.1130 288° West 474 545 36,000  Level FlightAware ADS-B
Wed 05:40:14 PM 48.4330 -125.2300 289° West 474 545 36,000  Level FlightAware ADS-B
Wed 05:40:49 PM 48.4560 -125.3390 288° West 473 544 36,000  Level FlightAware ADS-B
Wed 05:41:20 PM 48.4770 -125.4340 288° West 473 544 36,000  Level FlightAware ADS-B
Wed 05:41:58 PM 48.5030 -125.5550 288° West 471 542 36,000  Level FlightAware ADS-B
Wed 05:42:34 PM 48.5270 -125.6680 288° West 468 539 36,000  Level FlightAware ADS-B
Wed 05:43:10 PM 48.5500 -125.7780 288° West 468 539 36,000  Level FlightAware ADS-B
Wed 05:43:42 PM 48.5720 -125.8790 288° West 467 537 36,000  Level FlightAware ADS-B
Wed 05:44:18 PM 48.5950 -125.9880 288° West 467 537 36,000  Level FlightAware ADS-B
Wed 05:45:07 PM 48.6260 -126.1400 287° West 469 540 36,000  Level FlightAware ADS-B
Wed 05:45:42 PM 48.6490 -126.2510 287° West 470 541 36,000  Level FlightAware ADS-B
Wed 05:46:12 PM 48.6660 -126.3300 288° West 469 540 36,000  Level FlightAware ADS-B
Wed 05:46:47 PM 48.6900 -126.4510 287° West 468 539 36,000  Level FlightAware ADS-B
Wed 05:47:27 PM 48.7150 -126.5740 287° West 466 536 36,000  Level FlightAware ADS-B
Wed 05:48:07 PM 48.7410 -126.7020 287° West 467 537 36,000  Level FlightAware ADS-B
Wed 05:48:42 PM 48.7630 -126.8100 287° West 467 537 36,000  Level FlightAware ADS-B
Wed 05:49:17 PM 48.7840 -126.9160 287° West 463 533 36,000  Level FlightAware ADS-B
Wed 05:49:53 PM 48.8060 -127.0240 287° West 465 535 36,000  Level FlightAware ADS-B
Wed 05:50:28 PM 48.8300 -127.1450 287° West 465 535 36,000  Level FlightAware ADS-B
Wed 05:51:08 PM 48.8530 -127.2640 286° West 465 535 36,000  Level FlightAware ADS-B
Wed 05:51:48 PM 48.8780 -127.3920 287° West 462 532 36,000  Level FlightAware ADS-B
Wed 05:52:18 PM 48.8960 -127.4810 287° West 462 532 36,000  Level FlightAware ADS-B
Wed 05:53:10 PM 48.9230 -127.6240 286° West 462 532 36,000  Level FlightAware ADS-B
Wed 05:53:43 PM 48.9450 -127.7400 286° West 463 533 36,000  Level FlightAware ADS-B
Wed 05:54:33 PM 48.9750 -127.8960 286° West 465 535 36,000  Level FlightAware ADS-B
Wed 05:55:08 PM 48.9970 -128.0130 286° West 463 533 36,000  Level FlightAware ADS-B
Wed 05:55:43 PM 49.0180 -128.1220 286° West 464 534 36,000  Level FlightAware ADS-B
Wed 05:56:22 PM 49.0380 -128.2260 286° West 464 534 36,000  Level FlightAware ADS-B
Wed 05:56:58 PM 49.0580 -128.3220 288° West 464 534 36,000  Level FlightAware ADS-B
Wed 05:57:34 PM 49.0770 -128.4180 287° West 464 534 36,000  Level FlightAware ADS-B
Wed 05:58:10 PM 49.0960 -128.5140 287° West 464 534 36,000  Level FlightAware ADS-B
Wed 05:58:46 PM 49.1150 -128.6090 287° West 464 534 36,000  Level FlightAware ADS-B
Wed 05:59:22 PM 49.1340 -128.7050 287° West 464 534 36,000  Level FlightAware ADS-B
Wed 05:59:58 PM 49.1540 -128.8010 288° West 464 534 36,000  Level FlightAware ADS-B
Wed 06:00:32 PM 49.1720 -128.8920 287° West 464 534 36,000  Level FlightAware ADS-B
Wed 06:01:09 PM 49.1910 -128.9910 286° West 464 534 36,000  Level FlightAware ADS-B
Wed 06:01:45 PM 49.2110 -129.0870 288° West 464 534 36,000  Level FlightAware ADS-B
Wed 06:02:21 PM 49.2300 -129.1830 287° West 464 534 36,000  Level FlightAware ADS-B
Wed 06:02:57 PM 49.2490 -129.2800 287° West 464 534 36,000  Level FlightAware ADS-B
Wed 06:03:32 PM 49.2680 -129.3730 287° West 464 534 36,000  Level FlightAware ADS-B
Wed 06:04:08 PM 49.2870 -129.4690 287° West 464 534 36,000  Level FlightAware ADS-B
Wed 06:04:45 PM 49.3070 -129.5680 287° West 464 534 36,000  Level FlightAware ADS-B
Wed 06:05:21 PM 49.3260 -129.6650 287° West 464 534 36,000  Level FlightAware ADS-B
Wed 06:06:19 PM 49.3500 -130.1000 287° West 460 529 36,000  Level Vancouver Center
Wed 06:07:19 PM 49.3833 -130.3167 283° West 460 529 36,000 250 Level Vancouver Center
Wed 06:08:19 PM 49.4333 -130.4833 295° West 460 529 36,500 800 Climbing Vancouver Center
Wed 06:09:19 PM 49.4667 -130.6833 284° West 460 529 37,600 750 Climbing Vancouver Center
Wed 06:10:19 PM 49.5000 -130.8500 287° West 450 518 38,000 200 Climbing Vancouver Center
Wed 06:11:19 PM 49.5500 -131.0667 290° West 450 518 38,000  Level Vancouver Center
Wed 06:12:19 PM 49.5667 -131.2167 280° West 450 518 38,000  Level Vancouver Center
Wed 06:13:19 PM 49.6000 -131.4000 286° West 450 518 38,000  Level Vancouver Center
Wed 06:14:19 PM 49.6500 -131.6000 291° West 450 518 38,000  Level Vancouver Center
Wed 06:15:19 PM 49.6833 -131.7833 286° West 450 518 38,000  Level Vancouver Center
Wed 06:16:19 PM 49.7167 -131.9667 286° West 460 529 38,000  Level Vancouver Center
Wed 06:18:00 PM 49.7792 -132.2893 287° West  Level FlightAware Approximate
Wed 06:24:12 PM 50.0000 -133.4000 273° West 448 516 38,000  Level Oakland Oceanic (ODAPS)
Wed 06:25:00 PM 50.0066 -133.6233 273° West  Level FlightAware Approximate
Wed 06:26:00 PM 50.0117 -133.8243 272° West  Level FlightAware Approximate
Wed 06:27:00 PM 50.0165 -134.0253 272° West  Level FlightAware Approximate
Wed 06:27:59 PM 50.0167 -134.1333 272° West 451 519 38,000  Level Oakland Oceanic (ODAPS)
Wed 06:28:00 PM 50.0209 -134.2264 272° West  Level FlightAware Approximate
Wed 06:29:00 PM 50.0250 -134.4275 272° West  Level FlightAware Approximate
Wed 06:30:00 PM 50.0272 -134.5639 272° West 448 516 38,000  Level FlightAware Transoceanic
Wed 06:31:00 PM 50.0306 -134.7580 271° West 448 516 38,000  Level FlightAware Transoceanic
Wed 06:32:00 PM 50.0337 -134.9521 271° West 448 516 38,000  Level FlightAware Transoceanic
Wed 06:33:00 PM 50.0364 -135.1463 271° West 448 516 38,000  Level FlightAware Transoceanic
Wed 06:34:00 PM 50.0370 -135.3064 271° West 451 519 38,000  Level FlightAware Transoceanic
Wed 06:35:00 PM 50.0392 -135.5020 271° West 451 519 38,000  Level FlightAware Transoceanic
Wed 06:36:00 PM 50.0411 -135.6976 271° West 451 519 38,000  Level FlightAware Transoceanic
Wed 06:36:18 PM 50.0500 -135.7333 271° West 459 528 38,000  Level Oakland Oceanic (ODAPS)
Wed 06:37:00 PM 50.0427 -135.8932 271° West 451 519 38,000  Level FlightAware Transoceanic
Wed 06:38:00 PM 50.0440 -136.0889 270° West 451 519 38,000  Level FlightAware Transoceanic
Wed 06:39:00 PM 50.0449 -136.2845 270° West 451 519 38,000  Level FlightAware Transoceanic
Wed 06:40:00 PM 50.0455 -136.4802 270° West 451 519 38,000  Level FlightAware Transoceanic
Wed 06:41:00 PM 50.0458 -136.6759 270° West 451 519 38,000  Level FlightAware Transoceanic
Wed 06:42:00 PM 50.0519 -136.8976 270° West 459 528 38,000  Level FlightAware Transoceanic
Wed 06:43:00 PM 50.0511 -137.0917 270° West 459 528 38,000  Level FlightAware Transoceanic
Wed 06:44:00 PM 50.0499 -137.2857 269° West 459 528 38,000  Level FlightAware Transoceanic
Wed 06:45:00 PM 50.0485 -137.4798 269° West 459 528 38,000  Level FlightAware Transoceanic
Wed 06:46:00 PM 50.0467 -137.6738 269° West 459 528 38,000  Level FlightAware Transoceanic
Wed 06:47:00 PM 50.0446 -137.8678 269° West 459 528 38,000  Level FlightAware Transoceanic
Wed 06:48:00 PM 50.0421 -138.0618 269° West 459 528 38,000  Level FlightAware Transoceanic
Wed 06:49:00 PM 50.0394 -138.2557 269° West 459 528 38,000  Level FlightAware Transoceanic
Wed 06:50:00 PM 50.0363 -138.4497 269° West 459 528 38,000  Level FlightAware Transoceanic
Wed 06:50:30 PM 50.0333 -138.5000 269° West 476 548 38,000  Level Oakland Oceanic (ODAPS)
Wed 06:51:00 PM 50.0329 -138.6436 268° West 459 528 38,000  Level FlightAware Transoceanic
Wed 06:52:00 PM 50.0291 -138.8374 268° West 459 528 38,000  Level FlightAware Transoceanic
Wed 06:53:00 PM 50.0251 -139.0313 268° West 459 528 38,000  Level FlightAware Transoceanic
Wed 06:54:00 PM 50.0207 -139.2251 268° West 459 528 38,000  Level FlightAware Transoceanic
Wed 06:55:00 PM 50.0160 -139.4189 268° West 459 528 38,000  Level FlightAware Transoceanic
Wed 06:56:00 PM 50.0060 -139.7858 268° West 476 548 38,000  Level FlightAware Transoceanic
Wed 06:57:00 PM 50.0000 -140.0000 274° West 476 548 38,000  Level FlightAware Transoceanic
Wed 06:58:00 PM 50.0086 -140.2035 274° West 476 548 38,000  Level FlightAware Transoceanic
Wed 06:58:22 PM 50.0000 -140.0000 274° West 485 558 38,000  Level Oakland Oceanic (ODAPS)
Wed 06:59:00 PM 50.0168 -140.4071 274° West 476 548 38,000  Level FlightAware Transoceanic
Wed 07:00:00 PM 50.0247 -140.6107 273° West 476 548 38,000  Level FlightAware Transoceanic
Wed 07:01:00 PM 50.0322 -140.8145 273° West 476 548 38,000  Level FlightAware Transoceanic
Wed 07:02:00 PM 50.0394 -141.0182 273° West 476 548 38,000  Level FlightAware Transoceanic
Wed 07:03:00 PM 50.0462 -141.2221 273° West 476 548 38,000  Level FlightAware Transoceanic
Wed 07:04:00 PM 50.0535 -141.4557 273° West 485 558 38,000  Level FlightAware Transoceanic
Wed 07:04:14 PM 50.0500 -141.3667 273° West 493 567 38,000  Level Oakland Oceanic (ODAPS)
Wed 07:05:00 PM 50.0597 -141.6639 273° West 485 558 38,000  Level FlightAware Transoceanic
Wed 07:06:00 PM 50.0655 -141.8721 272° West 485 558 38,000  Level FlightAware Transoceanic
Wed 07:07:00 PM 50.0709 -142.0805 272° West 485 558 38,000  Level FlightAware Transoceanic
Wed 07:08:00 PM 50.0760 -142.2888 272° West 485 558 38,000  Level FlightAware Transoceanic
Wed 07:09:00 PM 50.0806 -142.4972 272° West 485 558 38,000  Level FlightAware Transoceanic
Wed 07:10:00 PM 50.0827 -142.6295 272° West 493 567 38,000  Level FlightAware Transoceanic
Wed 07:11:00 PM 50.0868 -142.8401 272° West 493 567 38,000  Level FlightAware Transoceanic
Wed 07:12:00 PM 50.0906 -143.0508 272° West 493 567 38,000  Level FlightAware Transoceanic
Wed 07:13:00 PM 50.0939 -143.2615 271° West 493 567 38,000  Level FlightAware Transoceanic
Wed 07:14:00 PM 50.0969 -143.4722 271° West 493 567 38,000  Level FlightAware Transoceanic
Wed 07:15:00 PM 50.0995 -143.6829 271° West 493 567 38,000  Level FlightAware Transoceanic
Wed 07:16:00 PM 50.1017 -143.8937 271° West 493 567 38,000  Level FlightAware Transoceanic
Wed 07:17:00 PM 50.1035 -144.1045 271° West 493 567 38,000  Level FlightAware Transoceanic
Wed 07:18:00 PM 50.1050 -144.3153 271° West 493 567 38,000  Level FlightAware Transoceanic
Wed 07:18:19 PM 50.1000 -144.3333 271° West 500 575 38,000  Level Oakland Oceanic (ODAPS)
Wed 07:19:00 PM 50.1061 -144.5261 270° West 493 567 38,000  Level FlightAware Transoceanic
Wed 07:20:00 PM 50.1068 -144.7369 270° West 493 567 38,000  Level FlightAware Transoceanic
Wed 07:21:00 PM 50.1071 -144.9477 270° West 493 567 38,000  Level FlightAware Transoceanic
Wed 07:22:00 PM 50.1070 -145.1586 270° West 493 567 38,000  Level FlightAware Transoceanic
Wed 07:23:00 PM 50.1065 -145.3694 270° West 493 567 38,000  Level FlightAware Transoceanic
Wed 07:24:00 PM 50.1014 -145.6426 270° West 500 575 38,000  Level FlightAware Transoceanic
Wed 07:25:00 PM 50.1002 -145.8608 269° West 500 575 38,000  Level FlightAware Transoceanic
Wed 07:26:00 PM 50.0986 -146.0790 269° West 500 575 38,000  Level FlightAware Transoceanic
Wed 07:27:00 PM 50.0966 -146.2972 269° West 500 575 38,000  Level FlightAware Transoceanic
Wed 07:28:00 PM 50.0942 -146.5153 269° West 500 575 38,000  Level FlightAware Transoceanic
Wed 07:29:00 PM 50.0914 -146.7334 269° West 500 575 38,000  Level FlightAware Transoceanic
Wed 07:30:00 PM 50.0881 -146.9516 269° West 500 575 38,000  Level FlightAware Transoceanic
Wed 07:31:00 PM 50.0845 -147.1696 268° West 500 575 38,000  Level FlightAware Transoceanic
Wed 07:32:00 PM 50.0804 -147.3877 268° West 500 575 38,000  Level FlightAware Transoceanic
Wed 07:32:53 PM 50.0833 -147.3667 268° West 507 583 38,000  Level Oakland Oceanic (ODAPS)
Wed 07:33:00 PM 50.0760 -147.6057 268° West 500 575 38,000  Level FlightAware Transoceanic
Wed 07:34:00 PM 50.0711 -147.8236 268° West 500 575 38,000  Level FlightAware Transoceanic
Wed 07:35:00 PM 50.0658 -148.0415 268° West 500 575 38,000  Level FlightAware Transoceanic
Wed 07:36:00 PM 50.0602 -148.2594 268° West 500 575 38,000  Level FlightAware Transoceanic
Wed 07:37:00 PM 50.0541 -148.4772 267° West 500 575 38,000  Level FlightAware Transoceanic
Wed 07:38:00 PM 50.0476 -148.6949 267° West 500 575 38,000  Level FlightAware Transoceanic
Wed 07:39:00 PM 50.0420 -148.9039 267° West 507 583 38,000  Level FlightAware Transoceanic
Wed 07:40:00 PM 50.0344 -149.1233 267° West 507 583 38,000  Level FlightAware Transoceanic
Wed 07:41:00 PM 50.0264 -149.3426 267° West 507 583 38,000  Level FlightAware Transoceanic
Wed 07:42:00 PM 50.0180 -149.5618 267° West 507 583 38,000  Level FlightAware Transoceanic
Wed 07:43:00 PM 50.0092 -149.7809 266° West 507 583 38,000  Level FlightAware Transoceanic
Wed 07:44:00 PM 50.0000 -150.0000 265° West 507 583 38,000  Level FlightAware Transoceanic
Wed 07:45:00 PM 49.9881 -150.2120 265° West 507 583 38,000  Level FlightAware Transoceanic
Wed 07:46:00 PM 49.9757 -150.4238 265° West 507 583 38,000  Level FlightAware Transoceanic
Wed 07:47:00 PM 49.9630 -150.6356 265° West 507 583 38,000  Level FlightAware Transoceanic
Wed 07:48:00 PM 49.9499 -150.8472 264° West 507 583 38,000  Level FlightAware Transoceanic
Wed 07:49:00 PM 49.9365 -151.0587 264° West 507 583 38,000  Level FlightAware Transoceanic
Wed 07:49:02 PM 49.9833 -150.4000 265° West 511 588 38,000  Level Oakland Oceanic (ODAPS)
Wed 07:50:00 PM 49.9226 -151.2701 264° West 507 583 38,000  Level FlightAware Transoceanic
Wed 07:51:00 PM 49.9084 -151.4814 264° West 507 583 38,000  Level FlightAware Transoceanic
Wed 07:52:00 PM 49.8937 -151.6926 264° West 507 583 38,000  Level FlightAware Transoceanic
Wed 07:53:00 PM 49.8787 -151.9036 264° West 507 583 38,000  Level FlightAware Transoceanic
Wed 07:54:00 PM 49.8633 -152.1145 263° West 507 583 38,000  Level FlightAware Transoceanic
Wed 07:55:00 PM 49.8473 -152.3928 263° West 511 588 38,000  Level FlightAware Transoceanic
Wed 07:56:00 PM 49.8301 -152.6134 263° West 511 588 38,000  Level FlightAware Transoceanic
Wed 07:57:00 PM 49.8125 -152.8340 263° West 511 588 38,000  Level FlightAware Transoceanic
Wed 07:58:00 PM 49.7944 -153.0544 263° West 511 588 38,000  Level FlightAware Transoceanic
Wed 07:59:00 PM 49.7760 -153.2746 263° West 511 588 38,000  Level FlightAware Transoceanic
Wed 07:59:42 PM 49.7667 -153.4167 262° West 503 579 38,000  Level Oakland Oceanic (ODAPS)
Wed 08:00:00 PM 49.7571 -153.4946 262° West 511 588 38,000  Level FlightAware Transoceanic
Wed 08:01:00 PM 49.7378 -153.7144 262° West 511 588 38,000  Level FlightAware Transoceanic
Wed 08:02:00 PM 49.7180 -153.9341 262° West 511 588 38,000  Level FlightAware Transoceanic
Wed 08:03:00 PM 49.6979 -154.1536 262° West 511 588 38,000  Level FlightAware Transoceanic
Wed 08:04:00 PM 49.6774 -154.3730 262° West 511 588 38,000  Level FlightAware Transoceanic
Wed 08:05:00 PM 49.6516 -154.6660 261° West 503 579 38,000  Level FlightAware Transoceanic
Wed 08:06:00 PM 49.6311 -154.8736 261° West 503 579 38,000  Level FlightAware Transoceanic
Wed 08:07:00 PM 49.6102 -155.0811 261° West 503 579 38,000  Level FlightAware Transoceanic
Wed 08:08:00 PM 49.5890 -155.2884 261° West 503 579 38,000  Level FlightAware Transoceanic
Wed 08:09:00 PM 49.5674 -155.4955 261° West 503 579 38,000  Level FlightAware Transoceanic
Wed 08:10:00 PM 49.5454 -155.7024 261° West 503 579 38,000  Level FlightAware Transoceanic
Wed 08:11:00 PM 49.5231 -155.9091 260° West 503 579 38,000  Level FlightAware Transoceanic
Wed 08:12:00 PM 49.5004 -156.1156 260° West 503 579 38,000  Level FlightAware Transoceanic
Wed 08:13:00 PM 49.4773 -156.3219 260° West 503 579 38,000  Level FlightAware Transoceanic
Wed 08:14:00 PM 49.4539 -156.5281 260° West 503 579 38,000  Level FlightAware Transoceanic
Wed 08:15:00 PM 49.4301 -156.7340 260° West 503 579 38,000  Level FlightAware Transoceanic
Wed 08:16:00 PM 49.4059 -156.9398 260° West 503 579 38,000  Level FlightAware Transoceanic
Wed 08:17:00 PM 49.3814 -157.1453 260° West 503 579 38,000  Level FlightAware Transoceanic
Wed 08:18:00 PM 49.3565 -157.3507 259° West 503 579 38,000  Level FlightAware Transoceanic
Wed 08:19:00 PM 49.3312 -157.5558 259° West 503 579 38,000  Level FlightAware Transoceanic
Wed 08:19:14 PM 49.3833 -157.1167 260° West 498 573 38,000  Level Oakland Oceanic (ODAPS)
Wed 08:20:00 PM 49.3056 -157.7607 259° West 503 579 38,000  Level FlightAware Transoceanic
Wed 08:21:00 PM 49.2796 -157.9654 259° West 503 579 38,000  Level FlightAware Transoceanic
Wed 08:22:00 PM 49.2533 -158.1699 259° West 503 579 38,000  Level FlightAware Transoceanic
Wed 08:23:00 PM 49.2266 -158.3741 259° West 503 579 38,000  Level FlightAware Transoceanic
Wed 08:24:00 PM 49.1995 -158.5782 258° West 503 579 38,000  Level FlightAware Transoceanic
Wed 08:25:00 PM 49.1731 -158.7698 258° West 498 573 38,000  Level FlightAware Transoceanic
Wed 08:26:00 PM 49.1451 -158.9754 258° West 498 573 38,000  Level FlightAware Transoceanic
Wed 08:27:00 PM 49.1168 -159.1808 258° West 498 573 38,000  Level FlightAware Transoceanic
Wed 08:28:00 PM 49.0882 -159.3860 258° West 498 573 38,000  Level FlightAware Transoceanic
Wed 08:28:01 PM 49.1167 -159.2167 257° West 502 578 38,000  Level Oakland Oceanic (ODAPS)
Wed 08:29:00 PM 49.0591 -159.5909 258° West 498 573 38,000  Level FlightAware Transoceanic
Wed 08:30:00 PM 49.0298 -159.7956 258° West 498 573 38,000  Level FlightAware Transoceanic
Wed 08:31:00 PM 49.0000 -160.0000 265° West 498 573 38,000  Level FlightAware Transoceanic
Wed 08:31:10 PM 49.0000 -160.0000 265° West 506 582 38,000  Level Oakland Oceanic (ODAPS)
Wed 08:32:00 PM 48.9883 -160.2075 265° West 498 573 38,000  Level FlightAware Transoceanic
Wed 08:33:00 PM 48.9763 -160.4149 265° West 498 573 38,000  Level FlightAware Transoceanic
Wed 08:34:00 PM 48.9639 -160.6223 265° West 502 578 38,000  Level FlightAware Transoceanic
Wed 08:35:00 PM 48.9512 -160.8295 265° West 502 578 38,000  Level FlightAware Transoceanic
Wed 08:36:00 PM 48.9380 -161.0366 264° West 502 578 38,000  Level FlightAware Transoceanic
Wed 08:37:00 PM 48.9228 -161.2694 264° West 506 582 38,000  Level FlightAware Transoceanic
Wed 08:38:00 PM 48.9086 -161.4806 264° West 506 582 38,000  Level FlightAware Transoceanic
Wed 08:39:00 PM 48.8940 -161.6917 264° West 506 582 38,000  Level FlightAware Transoceanic
Wed 08:40:00 PM 48.8790 -161.9026 264° West 506 582 38,000  Level FlightAware Transoceanic
Wed 08:41:00 PM 48.8637 -162.1134 264° West 506 582 38,000  Level FlightAware Transoceanic
Wed 08:41:50 PM 48.8667 -162.1833 263° West 520 598 38,000  Level Oakland Oceanic (ODAPS)
Wed 08:42:00 PM 48.8479 -162.3241 263° West 506 582 38,000  Level FlightAware Transoceanic
Wed 08:43:00 PM 48.8318 -162.5346 263° West 506 582 38,000  Level FlightAware Transoceanic
Wed 08:44:00 PM 48.8152 -162.7450 263° West 506 582 38,000  Level FlightAware Transoceanic
Wed 08:45:00 PM 48.7983 -162.9552 263° West 506 582 38,000  Level FlightAware Transoceanic
Wed 08:46:00 PM 48.7811 -163.1654 263° West 506 582 38,000  Level FlightAware Transoceanic
Wed 08:47:00 PM 48.7634 -163.3753 263° West 506 582 38,000  Level FlightAware Transoceanic
Wed 08:48:00 PM 48.7436 -163.6815 262° West 520 598 38,000  Level FlightAware Transoceanic
Wed 08:49:00 PM 48.7244 -163.8949 262° West 520 598 38,000  Level FlightAware Transoceanic
Wed 08:50:00 PM 48.7049 -164.1081 262° West 520 598 38,000  Level FlightAware Transoceanic
Wed 08:51:00 PM 48.6849 -164.3212 262° West 520 598 38,000  Level FlightAware Transoceanic
Wed 08:52:00 PM 48.6646 -164.5341 262° West 520 598 38,000  Level FlightAware Transoceanic
Wed 08:53:00 PM 48.6438 -164.7468 262° West 520 598 38,000  Level FlightAware Transoceanic
Wed 08:54:00 PM 48.6227 -164.9593 261° West 520 598 38,000  Level FlightAware Transoceanic
Wed 08:55:00 PM 48.6012 -165.1717 261° West 520 598 38,000  Level FlightAware Transoceanic
Wed 08:56:00 PM 48.5793 -165.3839 261° West 520 598 38,000  Level FlightAware Transoceanic
Wed 08:57:00 PM 48.5570 -165.5959 261° West 520 598 38,000  Level FlightAware Transoceanic
Wed 08:57:12 PM 48.6000 -165.1667 261° West 519 597 38,000  Level Oakland Oceanic (ODAPS)
Wed 08:58:00 PM 48.5343 -165.8077 261° West 520 598 38,000  Level FlightAware Transoceanic
Wed 08:59:00 PM 48.5112 -166.0193 261° West 520 598 38,000  Level FlightAware Transoceanic
Wed 09:00:00 PM 48.4878 -166.2307 260° West 520 598 38,000  Level FlightAware Transoceanic
Wed 09:01:00 PM 48.4639 -166.4420 260° West 520 598 38,000  Level FlightAware Transoceanic
Wed 09:02:00 PM 48.4397 -166.6530 260° West 520 598 38,000  Level FlightAware Transoceanic
Wed 09:03:00 PM 48.4143 -166.8605 260° West 519 597 38,000  Level FlightAware Transoceanic
Wed 09:04:00 PM 48.3894 -167.0714 260° West 519 597 38,000  Level FlightAware Transoceanic
Wed 09:05:00 PM 48.3640 -167.2820 260° West 519 597 38,000  Level FlightAware Transoceanic
Wed 09:06:00 PM 48.3383 -167.4924 259° West 519 597 38,000  Level FlightAware Transoceanic
Wed 09:07:00 PM 48.3122 -167.7026 259° West 519 597 38,000  Level FlightAware Transoceanic
Wed 09:08:00 PM 48.2857 -167.9126 259° West 519 597 38,000  Level FlightAware Transoceanic
Wed 09:09:00 PM 48.2589 -168.1224 259° West 519 597 38,000 577 Level FlightAware Transoceanic
Wed 09:09:44 PM 48.2667 -168.1000 259° West 513 590 39,000  Climbing Oakland Oceanic (ODAPS)
Wed 09:10:00 PM 48.2316 -168.3319 259° West 519 597 38,000 -789 Descending FlightAware Transoceanic
Wed 09:11:00 PM 48.2040 -168.5412 259° West 519 597 38,000  Level FlightAware Transoceanic
Wed 09:12:00 PM 48.1760 -168.7503 259° West 519 597 38,000  Level FlightAware Transoceanic
Wed 09:13:00 PM 48.1476 -168.9592 258° West 519 597 38,000  Level FlightAware Transoceanic
Wed 09:14:00 PM 48.1188 -169.1678 258° West 519 597 38,000  Level FlightAware Transoceanic
Wed 09:15:00 PM 48.0897 -169.3762 258° West 519 597 38,000 500 Level FlightAware Transoceanic
Wed 09:16:00 PM 48.0620 -169.5795 258° West 513 590 39,000 500 Climbing FlightAware Transoceanic
Wed 09:17:00 PM 48.0312 -169.7899 258° West 513 590 39,000  Level FlightAware Transoceanic
Wed 09:18:00 PM 48.0000 -170.0000 265° West 513 590 39,000  Level FlightAware Transoceanic
Wed 09:18:08 PM 48.0000 -170.0000 265° West 501 577 39,000  Level Oakland Oceanic (ODAPS)
Wed 09:19:00 PM 47.9884 -170.2074 265° West 513 590 39,000  Level FlightAware Transoceanic
Wed 09:20:00 PM 47.9764 -170.4147 265° West 513 590 39,000  Level FlightAware Transoceanic
Wed 09:21:00 PM 47.9640 -170.6219 265° West 513 590 39,000  Level FlightAware Transoceanic
Wed 09:22:00 PM 47.9513 -170.8290 265° West 513 590 39,000  Level FlightAware Transoceanic
Wed 09:23:00 PM 47.9382 -171.0360 265° West 513 590 39,000  Level FlightAware Transoceanic
Wed 09:23:36 PM 47.9333 -171.0000 265° West 501 577 39,000  Level Oakland Oceanic (ODAPS)
Wed 09:24:00 PM 47.9247 -171.2429 264° West 501 577 39,000  Level FlightAware Transoceanic
Wed 09:25:00 PM 47.9109 -171.4497 264° West 501 577 39,000  Level FlightAware Transoceanic
Wed 09:26:00 PM 47.8966 -171.6564 264° West 501 577 39,000  Level FlightAware Transoceanic
Wed 09:27:00 PM 47.8820 -171.8629 264° West 501 577 39,000  Level FlightAware Transoceanic
Wed 09:28:00 PM 47.8671 -172.0693 264° West 501 577 39,000  Level FlightAware Transoceanic
Wed 09:29:00 PM 47.8517 -172.2757 264° West 501 577 39,000  Level FlightAware Transoceanic
Wed 09:30:00 PM 47.8323 -172.4515 264° West 501 577 39,000  Level FlightAware Transoceanic
Wed 09:31:00 PM 47.8164 -172.6584 263° West 501 577 39,000  Level FlightAware Transoceanic
Wed 09:32:00 PM 47.8001 -172.8652 263° West 501 577 39,000  Level FlightAware Transoceanic
Wed 09:33:00 PM 47.7835 -173.0718 263° West 501 577 39,000  Level FlightAware Transoceanic
Wed 09:34:00 PM 47.7664 -173.2783 263° West 501 577 39,000  Level FlightAware Transoceanic
Wed 09:35:00 PM 47.7490 -173.4846 263° West 501 577 39,000  Level FlightAware Transoceanic
Wed 09:36:00 PM 47.7313 -173.6908 263° West 501 577 39,000  Level FlightAware Transoceanic
Wed 09:37:00 PM 47.7131 -173.8969 262° West 501 577 39,000  Level FlightAware Transoceanic
Wed 09:38:00 PM 47.6946 -174.1028 262° West 501 577 39,000  Level FlightAware Transoceanic
Wed 09:39:00 PM 47.6757 -174.3086 262° West 501 577 39,000  Level FlightAware Transoceanic
Wed 09:40:00 PM 47.6565 -174.5142 262° West 501 577 39,000  Level FlightAware Transoceanic
Wed 09:41:00 PM 47.6369 -174.7197 262° West 501 577 39,000  Level FlightAware Transoceanic
Wed 09:42:00 PM 47.6169 -174.9250 262° West 501 577 39,000  Level FlightAware Transoceanic
Wed 09:42:48 PM 47.6167 -174.9000 262° West 494 568 39,000  Level Oakland Oceanic (ODAPS)
Wed 09:43:00 PM 47.5965 -175.1302 262° West 501 577 39,000  Level FlightAware Transoceanic
Wed 09:44:00 PM 47.5758 -175.3352 261° West 501 577 39,000  Level FlightAware Transoceanic
Wed 09:45:00 PM 47.5548 -175.5400 261° West 501 577 39,000  Level FlightAware Transoceanic
Wed 09:46:00 PM 47.5333 -175.7447 261° West 501 577 39,000  Level FlightAware Transoceanic
Wed 09:47:00 PM 47.5115 -175.9492 261° West 501 577 39,000  Level FlightAware Transoceanic
Wed 09:48:00 PM 47.4894 -176.1535 261° West 501 577 39,000  Level FlightAware Transoceanic
Wed 09:49:00 PM 47.4669 -176.3397 261° West 494 568 39,000  Level FlightAware Transoceanic
Wed 09:50:00 PM 47.4440 -176.5447 261° West 494 568 39,000  Level FlightAware Transoceanic
Wed 09:51:00 PM 47.4208 -176.7495 260° West 494 568 39,000  Level FlightAware Transoceanic
Wed 09:52:00 PM 47.3972 -176.9541 260° West 494 568 39,000  Level FlightAware Transoceanic
Wed 09:52:04 PM 47.4500 -176.5833 260° West 487 560 39,000  Level Oakland Oceanic (ODAPS)
Wed 09:53:00 PM 47.3732 -177.1586 260° West 494 568 39,000  Level FlightAware Transoceanic
Wed 09:54:00 PM 47.3489 -177.3628 260° West 494 568 39,000  Level FlightAware Transoceanic
Wed 09:55:00 PM 47.3242 -177.5669 260° West 494 568 39,000  Level FlightAware Transoceanic
Wed 09:56:00 PM 47.2992 -177.7708 260° West 494 568 39,000  Level FlightAware Transoceanic
Wed 09:57:00 PM 47.2738 -177.9744 260° West 494 568 39,000  Level FlightAware Transoceanic
Wed 09:58:00 PM 47.2626 -178.1090 259° West 487 560 39,000  Level FlightAware Transoceanic
Wed 09:59:00 PM 47.2377 -178.2989 259° West 487 560 39,000  Level FlightAware Transoceanic
Wed 10:00:00 PM 47.2125 -178.4887 259° West 487 560 39,000  Level FlightAware Transoceanic
Wed 10:01:00 PM 47.1871 -178.6782 259° West 487 560 39,000  Level FlightAware Transoceanic
Wed 10:02:00 PM 47.1613 -178.8676 259° West 487 560 39,000  Level FlightAware Transoceanic
Wed 10:03:00 PM 47.1352 -179.0568 258° West 487 560 39,000  Level FlightAware Transoceanic
Wed 10:04:00 PM 47.1087 -179.2458 258° West 487 560 39,000  Level FlightAware Transoceanic
Wed 10:05:00 PM 47.0820 -179.4347 258° West 487 560 39,000  Level FlightAware Transoceanic
Wed 10:06:00 PM 47.0550 -179.6233 258° West 487 560 39,000  Level FlightAware Transoceanic
Wed 10:07:00 PM 47.0276 -179.8118 258° West 487 560 39,000  Level FlightAware Transoceanic
Wed 10:08:00 PM 47.0000 -180.0000 258° West 487 560 39,000  Level FlightAware Transoceanic
Wed 10:08:05 PM 47.1000 -179.2833 259° West 487 560 39,000  Level Oakland Oceanic (ODAPS)
Wed 10:09:00 PM 46.9716 179.8121 257° West 487 560 39,000  Level FlightAware Transoceanic
Wed 10:10:00 PM 46.9429 179.6243 257° West 487 560 39,000  Level FlightAware Transoceanic
Wed 10:10:32 PM 47.0000 180.0000 258° West 490 564 39,000  Level Oakland Oceanic (ODAPS)
Wed 10:11:00 PM 46.9139 179.4367 257° West 487 560 39,000  Level FlightAware Transoceanic
Wed 10:12:00 PM 46.8846 179.2494 257° West 487 560 39,000  Level FlightAware Transoceanic
Wed 10:13:00 PM 46.8549 179.0623 257° West 487 560 39,000  Level FlightAware Transoceanic
Wed 10:14:00 PM 46.8250 178.8753 257° West 487 560 39,000  Level FlightAware Transoceanic
Wed 10:15:00 PM 46.7948 178.6886 257° West 487 560 39,000  Level FlightAware Transoceanic
Wed 10:16:00 PM 46.7550 178.4458 256° West 490 564 39,000  Level FlightAware Transoceanic
Wed 10:17:00 PM 46.7229 178.2525 256° West 490 564 39,000  Level FlightAware Transoceanic
Wed 10:18:00 PM 46.6904 178.0595 256° West 490 564 39,000  Level FlightAware Transoceanic
Wed 10:19:00 PM 46.6577 177.8667 256° West 490 564 39,000  Level FlightAware Transoceanic
Wed 10:20:00 PM 46.6246 177.6742 256° West 490 564 39,000  Level FlightAware Transoceanic
Wed 10:21:00 PM 46.5912 177.4818 256° West 490 564 39,000  Level FlightAware Transoceanic
Wed 10:22:00 PM 46.5575 177.2897 256° West 490 564 39,000  Level FlightAware Transoceanic
Wed 10:23:00 PM 46.5234 177.0979 255° West 490 564 39,000  Level FlightAware Transoceanic
Wed 10:24:00 PM 46.4891 176.9063 255° West 490 564 39,000  Level FlightAware Transoceanic
Wed 10:25:00 PM 46.4544 176.7149 255° West 490 564 39,000  Level FlightAware Transoceanic
Wed 10:26:00 PM 46.4194 176.5238 255° West 490 564 39,000  Level FlightAware Transoceanic
Wed 10:27:00 PM 46.3841 176.3329 255° West 490 564 39,000  Level FlightAware Transoceanic
Wed 10:28:00 PM 46.3484 176.1423 255° West 490 564 39,000  Level FlightAware Transoceanic
Wed 10:28:52 PM 46.4500 176.6500 255° West 490 564 39,000  Level Oakland Oceanic (ODAPS)
Wed 10:29:00 PM 46.3125 175.9519 255° West 490 564 39,000  Level FlightAware Transoceanic
Wed 10:30:00 PM 46.2762 175.7618 254° West 490 564 39,000  Level FlightAware Transoceanic
Wed 10:31:00 PM 46.2396 175.5719 254° West 490 564 39,000  Level FlightAware Transoceanic
Wed 10:32:00 PM 46.2027 175.3823 254° West 490 564 39,000  Level FlightAware Transoceanic
Wed 10:33:00 PM 46.1655 175.1929 254° West 490 564 39,000  Level FlightAware Transoceanic
Wed 10:33:04 PM 46.2167 175.4500 254° West 493 567 39,000  Level Oakland Oceanic (ODAPS)
Wed 10:34:00 PM 46.1280 175.0038 254° West 490 564 39,000  Level FlightAware Transoceanic
Wed 10:35:00 PM 46.1143 174.9074 254° West 490 564 39,000  Level FlightAware Transoceanic
Wed 10:36:00 PM 46.0754 174.7152 254° West 490 564 39,000  Level FlightAware Transoceanic
Wed 10:37:00 PM 46.0361 174.5231 254° West 490 564 39,000  Level FlightAware Transoceanic
Wed 10:38:00 PM 45.9966 174.3314 253° West 490 564 39,000  Level FlightAware Transoceanic
Wed 10:39:00 PM 45.9469 174.1131 253° West 493 567 39,000  Level FlightAware Transoceanic
Wed 10:40:00 PM 45.9071 173.9232 253° West 493 567 39,000  Level FlightAware Transoceanic
Wed 10:41:00 PM 45.8670 173.7335 253° West 493 567 39,000  Level FlightAware Transoceanic
Wed 10:42:00 PM 45.8265 173.5441 253° West 493 567 39,000  Level FlightAware Transoceanic
Wed 10:43:00 PM 45.7858 173.3551 253° West 493 567 39,000  Level FlightAware Transoceanic
Wed 10:44:00 PM 45.7447 173.1662 253° West 493 567 39,000  Level FlightAware Transoceanic
Wed 10:45:00 PM 45.7034 172.9777 252° West 493 567 39,000  Level FlightAware Transoceanic
Wed 10:46:00 PM 45.6617 172.7894 252° West 493 567 39,000  Level FlightAware Transoceanic
Wed 10:47:00 PM 45.6197 172.6015 252° West 493 567 39,000 690 Level FlightAware Transoceanic
Wed 10:47:27 PM 45.6833 172.8667 252° West 487 560 40,000  Climbing Oakland Oceanic (ODAPS)
Wed 10:48:00 PM 45.5774 172.4138 252° West 493 567 39,000 -645 Descending FlightAware Transoceanic
Wed 10:49:00 PM 45.5348 172.2264 252° West 493 567 39,000  Level FlightAware Transoceanic
Wed 10:50:00 PM 45.4919 172.0392 252° West 493 567 39,000  Level FlightAware Transoceanic
Wed 10:51:00 PM 45.4487 171.8524 252° West 493 567 39,000  Level FlightAware Transoceanic
Wed 10:52:00 PM 45.4052 171.6659 252° West 493 567 39,000 500 Level FlightAware Transoceanic
Wed 10:53:00 PM 45.3734 171.5203 251° West 487 560 40,000 500 Climbing FlightAware Transoceanic
Wed 10:54:00 PM 45.3278 171.3292 251° West 487 560 40,000  Level FlightAware Transoceanic
Wed 10:55:00 PM 45.2819 171.1384 251° West 487 560 40,000  Level FlightAware Transoceanic
Wed 10:56:00 PM 45.2357 170.9478 251° West 487 560 40,000  Level FlightAware Transoceanic
Wed 10:57:00 PM 45.1892 170.7576 251° West 487 560 40,000  Level FlightAware Transoceanic
Wed 10:58:00 PM 45.1424 170.5678 251° West 487 560 40,000  Level FlightAware Transoceanic
Wed 10:59:00 PM 45.0952 170.3782 251° West 487 560 40,000  Level FlightAware Transoceanic
Wed 11:00:00 PM 45.0478 170.1889 250° West 487 560 40,000  Level FlightAware Transoceanic
Wed 11:01:00 PM 45.0000 170.0000 258° West 487 560 40,000  Level FlightAware Transoceanic
Wed 11:02:00 PM 44.9740 169.8281 258° West 487 560 40,000  Level FlightAware Transoceanic
Wed 11:03:00 PM 44.9477 169.6563 258° West 487 560 40,000  Level FlightAware Transoceanic
Wed 11:04:00 PM 44.9212 169.4847 258° West 487 560 40,000  Level FlightAware Transoceanic
Wed 11:05:00 PM 44.8943 169.3133 257° West 487 560 40,000  Level FlightAware Transoceanic
Wed 11:06:00 PM 44.8673 169.1420 257° West 487 560 40,000  Level FlightAware Transoceanic
Wed 11:07:00 PM 44.8400 168.9709 257° West 487 560 40,000  Level FlightAware Transoceanic
Wed 11:08:00 PM 44.8124 168.7999 257° West 487 560 40,000  Level FlightAware Transoceanic
Wed 11:09:00 PM 44.7846 168.6291 257° West 487 560 40,000  Level FlightAware Transoceanic
Wed 11:10:00 PM 44.7565 168.4585 257° West 487 560 40,000  Level FlightAware Transoceanic
Wed 11:11:00 PM 44.7282 168.2881 257° West 487 560 40,000  Level FlightAware Transoceanic
Wed 11:12:00 PM 44.6996 168.1178 257° West 487 560 40,000  Level FlightAware Transoceanic
Wed 11:13:00 PM 44.6708 167.9476 257° West 487 560 40,000  Level FlightAware Transoceanic
Wed 11:14:00 PM 44.6417 167.7777 256° West 487 560 40,000  Level FlightAware Transoceanic
Wed 11:15:00 PM 44.6124 167.6079 256° West 487 560 40,000  Level FlightAware Transoceanic
Wed 11:16:00 PM 44.5828 167.4383 256° West 487 560 40,000  Level FlightAware Transoceanic
Wed 11:17:00 PM 44.5529 167.2688 256° West 487 560 40,000  Level FlightAware Transoceanic
Wed 11:18:00 PM 44.5228 167.0996 256° West 487 560 40,000  Level FlightAware Transoceanic
Wed 11:19:00 PM 44.4925 166.9305 256° West 487 560 40,000  Level FlightAware Transoceanic
Wed 11:20:00 PM 44.4619 166.7616 256° West 487 560 40,000  Level FlightAware Transoceanic
Wed 11:21:00 PM 44.4311 166.5928 256° West 487 560 40,000  Level FlightAware Transoceanic
Wed 11:22:00 PM 44.4000 166.4243 255° West 487 560 40,000  Level FlightAware Transoceanic
Wed 11:23:00 PM 44.3686 166.2559 255° West 487 560 40,000  Level FlightAware Transoceanic
Wed 11:24:00 PM 44.3371 166.0877 255° West 487 560 40,000  Level FlightAware Transoceanic
Wed 11:25:00 PM 44.3052 165.9197 255° West 487 560 40,000  Level FlightAware Transoceanic
Wed 11:26:00 PM 44.2732 165.7519 255° West 487 560 40,000  Level FlightAware Transoceanic
Wed 11:27:00 PM 44.2408 165.5842 255° West 487 560 40,000  Level FlightAware Transoceanic
Wed 11:28:00 PM 44.2083 165.4168 255° West 487 560 40,000  Level FlightAware Transoceanic
Wed 11:28:46 PM 45.0000 170.0000 258° West 487 560 40,000  Level Oakland Oceanic (ODAPS)
Wed 11:29:00 PM 44.1755 165.2495 255° West 487 560 40,000  Level FlightAware Transoceanic
Wed 11:30:00 PM 44.1424 165.0824 255° West 487 560 40,000  Level FlightAware Transoceanic
Wed 11:31:00 PM 44.1091 164.9155 254° West 487 560 40,000  Level FlightAware Transoceanic
Wed 11:32:00 PM 44.0756 164.7488 254° West 487 560 40,000  Level FlightAware Transoceanic
Wed 11:33:00 PM 44.0418 164.5823 254° West 487 560 40,000  Level FlightAware Transoceanic
Wed 11:34:00 PM 44.0078 164.4159 254° West 487 560 40,000  Level FlightAware Transoceanic
Wed 11:35:00 PM 43.9537 164.1541 254° West 487 560 40,000  Level FlightAware Transoceanic
Wed 11:36:00 PM 43.9184 163.9855 254° West 487 560 40,000  Level FlightAware Transoceanic
Wed 11:37:00 PM 43.8830 163.8170 254° West 487 560 40,000  Level FlightAware Transoceanic
Wed 11:38:00 PM 43.8472 163.6488 254° West 487 560 40,000  Level FlightAware Transoceanic
Wed 11:39:00 PM 43.8113 163.4808 253° West 487 560 40,000  Level FlightAware Transoceanic
Wed 11:40:00 PM 43.7751 163.3129 253° West 487 560 40,000  Level FlightAware Transoceanic
Wed 11:41:00 PM 43.7386 163.1453 253° West 487 560 40,000  Level FlightAware Transoceanic
Wed 11:42:00 PM 43.7019 162.9778 253° West 487 560 40,000  Level FlightAware Transoceanic
Wed 11:43:00 PM 43.6649 162.8106 253° West 487 560 40,000  Level FlightAware Transoceanic
Wed 11:44:00 PM 43.6277 162.6436 253° West 487 560 40,000  Level FlightAware Transoceanic
Wed 11:45:00 PM 43.5903 162.4768 253° West 487 560 40,000  Level FlightAware Transoceanic
Wed 11:46:00 PM 43.5526 162.3102 253° West 487 560 40,000  Level FlightAware Transoceanic
Wed 11:47:00 PM 43.5147 162.1438 252° West 487 560 40,000  Level FlightAware Transoceanic
Wed 11:48:00 PM 43.4765 161.9776 252° West 487 560 40,000  Level FlightAware Transoceanic
Wed 11:49:00 PM 43.4381 161.8116 252° West 487 560 40,000  Level FlightAware Transoceanic
Wed 11:50:00 PM 43.3995 161.6459 252° West 487 560 40,000  Level FlightAware Transoceanic
Wed 11:51:00 PM 43.3606 161.4803 252° West 487 560 40,000  Level FlightAware Transoceanic
Wed 11:52:00 PM 43.3215 161.3150 252° West 487 560 40,000  Level FlightAware Transoceanic
Wed 11:53:00 PM 43.2821 161.1499 252° West 487 560 40,000  Level FlightAware Transoceanic
Wed 11:54:00 PM 43.2425 160.9849 252° West 487 560 40,000  Level FlightAware Transoceanic
Wed 11:55:00 PM 43.2027 160.8202 252° West 487 560 40,000  Level FlightAware Transoceanic
Wed 11:56:00 PM 43.1626 160.6558 251° West 487 560 40,000  Level FlightAware Transoceanic
Wed 11:57:00 PM 43.1223 160.4915 251° West 487 560 40,000  Level FlightAware Transoceanic
Wed 11:58:00 PM 43.0818 160.3274 251° West 487 560 40,000  Level FlightAware Transoceanic
Wed 11:59:00 PM 43.0410 160.1636 251° West 487 560 40,000  Level FlightAware Transoceanic
Thu 12:00:00 AM 43.0000 160.0000 247° West 487 560 40,000  Level FlightAware Transoceanic
Thu 12:01:00 AM 42.9516 159.8463 247° West 487 560 40,000  Level FlightAware Transoceanic
Thu 12:02:00 AM 42.9029 159.6929 247° West 487 560 40,000  Level FlightAware Transoceanic
Thu 12:03:00 AM 42.8540 159.5398 246° West 487 560 40,000  Level FlightAware Transoceanic
Thu 12:04:00 AM 42.8050 159.3869 246° West 487 560 40,000  Level FlightAware Transoceanic
Thu 12:05:00 AM 42.7557 159.2342 246° West 487 560 40,000  Level FlightAware Transoceanic
Thu 12:06:00 AM 42.7063 159.0817 246° West 487 560 40,000  Level FlightAware Transoceanic
Thu 12:07:00 AM 42.6566 158.9296 246° West 487 560 40,000  Level FlightAware Transoceanic
Thu 12:08:00 AM 42.6067 158.7776 246° West 487 560 40,000  Level FlightAware Transoceanic
Thu 12:09:00 AM 42.5567 158.6259 246° West 487 560 40,000  Level FlightAware Transoceanic
Thu 12:10:00 AM 42.5064 158.4744 246° West 487 560 40,000  Level FlightAware Transoceanic
Thu 12:11:00 AM 42.4559 158.3232 246° West 487 560 40,000  Level FlightAware Transoceanic
Thu 12:12:00 AM 42.4053 158.1722 245° Southwest 487 560 40,000  Level FlightAware Transoceanic
Thu 12:13:00 AM 42.3544 158.0215 245° Southwest 487 560 40,000  Level FlightAware Transoceanic
Thu 12:14:00 AM 42.3034 157.8710 245° Southwest 487 560 40,000  Level FlightAware Transoceanic
Thu 12:15:00 AM 42.2521 157.7208 245° Southwest 487 560 40,000  Level FlightAware Transoceanic
Thu 12:16:00 AM 42.2006 157.5708 245° Southwest 487 560 40,000  Level FlightAware Transoceanic
Thu 12:17:00 AM 42.1490 157.4210 245° Southwest 487 560 40,000  Level FlightAware Transoceanic
Thu 12:18:00 AM 42.0972 157.2715 245° Southwest 487 560 40,000  Level FlightAware Transoceanic
Thu 12:19:00 AM 42.0451 157.1223 245° Southwest 487 560 40,000  Level FlightAware Transoceanic
Thu 12:20:00 AM 41.9929 156.9733 245° Southwest 487 560 40,000  Level FlightAware Transoceanic
Thu 12:21:00 AM 41.9405 156.8245 245° Southwest 487 560 40,000  Level FlightAware Transoceanic
Thu 12:22:00 AM 41.8879 156.6759 244° Southwest 487 560 40,000  Level FlightAware Transoceanic
Thu 12:23:00 AM 41.8351 156.5277 244° Southwest 487 560 40,000  Level FlightAware Transoceanic
Thu 12:24:00 AM 41.7821 156.3796 244° Southwest 487 560 40,000  Level FlightAware Transoceanic
Thu 12:25:00 AM 41.7289 156.2318 244° Southwest 487 560 40,000  Level FlightAware Transoceanic
Thu 12:26:00 AM 41.6755 156.0843 244° Southwest 487 560 40,000  Level FlightAware Transoceanic
Thu 12:27:00 AM 41.6220 155.9370 244° Southwest 487 560 40,000  Level FlightAware Transoceanic
Thu 12:28:00 AM 41.5682 155.7899 244° Southwest 487 560 40,000  Level FlightAware Transoceanic
Thu 12:29:00 AM 41.5143 155.6431 244° Southwest 487 560 40,000  Level FlightAware Transoceanic
Thu 12:30:00 AM 41.4602 155.4965 244° Southwest 487 560 40,000  Level FlightAware Transoceanic
Thu 12:31:00 AM 41.4058 155.3502 244° Southwest 487 560 40,000  Level FlightAware Transoceanic
Thu 12:32:00 AM 41.3513 155.2041 244° Southwest 487 560 40,000  Level FlightAware Transoceanic
Thu 12:33:00 AM 41.2967 155.0583 243° Southwest 487 560 40,000  Level FlightAware Transoceanic
Thu 12:34:00 AM 41.2418 154.9127 243° Southwest 487 560 40,000  Level FlightAware Transoceanic
Thu 12:35:00 AM 41.1868 154.7674 243° Southwest 487 560 40,000  Level FlightAware Transoceanic
Thu 12:36:00 AM 41.1315 154.6223 243° Southwest 487 560 40,000  Level FlightAware Transoceanic
Thu 12:37:00 AM 41.0761 154.4774 243° Southwest 487 560 40,000  Level FlightAware Transoceanic
Thu 12:38:00 AM 41.0205 154.3328 243° Southwest 487 560 40,000  Level FlightAware Transoceanic
Thu 12:39:00 AM 40.9648 154.1884 243° Southwest 487 560 40,000  Level FlightAware Transoceanic
Thu 12:40:00 AM 40.9088 154.0443 243° Southwest 487 560 40,000  Level FlightAware Transoceanic
Thu 12:41:00 AM 40.8527 153.9004 243° Southwest 487 560 40,000  Level FlightAware Transoceanic
Thu 12:42:00 AM 40.7964 153.7568 243° Southwest 487 560 40,000  Level FlightAware Transoceanic
Thu 12:43:00 AM 40.7399 153.6134 242° Southwest 487 560 40,000  Level FlightAware Transoceanic
Thu 12:44:00 AM 40.6833 153.4702 242° Southwest 487 560 40,000  Level FlightAware Transoceanic
Thu 12:45:00 AM 40.6264 153.3273 242° Southwest 487 560 40,000  Level FlightAware Transoceanic
Thu 12:46:00 AM 40.5694 153.1847 242° Southwest 487 560 40,000  Level FlightAware Transoceanic
Thu 12:47:00 AM 40.5122 153.0423 242° Southwest 487 560 40,000  Level FlightAware Transoceanic
Thu 12:48:00 AM 40.4548 152.9001 242° Southwest 487 560 40,000  Level FlightAware Transoceanic
Thu 12:49:00 AM 40.3973 152.7582 242° Southwest 487 560 40,000  Level FlightAware Transoceanic
Thu 12:50:00 AM 40.3396 152.6165 242° Southwest 487 560 40,000  Level FlightAware Transoceanic
Thu 12:51:00 AM 40.2817 152.4750 242° Southwest 487 560 40,000  Level FlightAware Transoceanic
Thu 12:52:00 AM 40.2237 152.3338 242° Southwest 487 560 40,000  Level FlightAware Transoceanic
Thu 12:53:00 AM 40.1654 152.1929 242° Southwest 487 560 40,000  Level FlightAware Transoceanic
Thu 12:54:00 AM 40.1070 152.0521 241° Southwest 487 560 40,000  Level FlightAware Transoceanic
Thu 12:55:00 AM 40.0485 151.9117 241° Southwest 487 560 40,000  Level FlightAware Transoceanic
Thu 12:56:00 AM 39.9897 151.7714 241° Southwest 487 560 40,000  Level FlightAware Transoceanic
Thu 12:57:00 AM 39.9308 151.6314 241° Southwest 487 560 40,000  Level FlightAware Transoceanic
Thu 12:58:00 AM 39.8718 151.4917 241° Southwest 487 560 40,000  Level FlightAware Transoceanic
Thu 12:59:00 AM 39.8125 151.3522 241° Southwest 487 560 40,000  Level FlightAware Transoceanic
Thu 01:00:00 AM 39.7531 151.2129 241° Southwest 487 560 40,000  Level FlightAware Transoceanic
Thu 01:01:00 AM 39.6935 151.0739 241° Southwest 487 560 40,000  Level FlightAware Transoceanic
Thu 01:02:00 AM 39.6338 150.9351 241° Southwest 487 560 40,000  Level FlightAware Transoceanic
Thu 01:03:00 AM 39.5739 150.7965 241° Southwest 487 560 40,000  Level FlightAware Transoceanic
Thu 01:04:00 AM 39.5138 150.6582 241° Southwest 487 560 40,000  Level FlightAware Transoceanic
Thu 01:05:00 AM 39.4536 150.5201 240° Southwest 487 560 40,000  Level FlightAware Transoceanic
Thu 01:06:00 AM 39.3932 150.3823 240° Southwest 487 560 40,000  Level FlightAware Transoceanic
Thu 01:07:00 AM 39.3326 150.2447 240° Southwest 487 560 40,000  Level FlightAware Transoceanic
Thu 01:08:00 AM 39.2719 150.1073 240° Southwest 487 560 40,000  Level FlightAware Transoceanic
Thu 01:09:00 AM 39.2110 149.9702 240° Southwest 487 560 40,000 38 Level FlightAware Transoceanic
Thu 01:10:00 AM 39.1520 149.8217 243° Southwest  Level FlightAware Approximate
Thu 01:11:00 AM 39.1489 149.8134 246° West  Level FlightAware Approximate
Thu 01:12:00 AM 39.0964 149.6609 246° West  Level FlightAware Approximate
Thu 01:13:00 AM 39.0438 149.5087 246° West  Level FlightAware Approximate
Thu 01:14:00 AM 38.9910 149.3566 246° West  Level FlightAware Approximate
Thu 01:15:00 AM 38.9380 149.2048 246° West  Level FlightAware Approximate
Thu 01:16:00 AM 38.8847 149.0533 246° West  Level FlightAware Approximate
Thu 01:17:00 AM 38.8313 148.9019 246° West  Level FlightAware Approximate
Thu 01:18:00 AM 38.7780 148.7506 247° West  Level FlightAware Approximate
Thu 01:19:00 AM 38.7266 148.5983 247° West  Level FlightAware Approximate
Thu 01:20:00 AM 38.6751 148.4462 247° West  Level FlightAware Approximate
Thu 01:21:00 AM 38.6234 148.2943 246° West  Level FlightAware Approximate
Thu 01:22:00 AM 38.5715 148.1427 246° West  Level FlightAware Approximate
Thu 01:23:00 AM 38.5194 147.9912 246° West  Level FlightAware Approximate
Thu 01:24:00 AM 38.4657 147.8408 245° Southwest  Level FlightAware Approximate
Thu 01:25:00 AM 38.4117 147.6907 245° Southwest  Level FlightAware Approximate
Thu 01:26:00 AM 38.3575 147.5408 245° Southwest  Level FlightAware Approximate
Thu 01:27:00 AM 38.3031 147.3911 245° Southwest  Level FlightAware Approximate
Thu 01:28:00 AM 38.2486 147.2417 245° Southwest  Level FlightAware Approximate
Thu 01:29:00 AM 38.1938 147.0924 245° Southwest  Level FlightAware Approximate
Thu 01:30:00 AM 38.1388 146.9435 245° Southwest  Level FlightAware Approximate
Thu 01:31:00 AM 38.0837 146.7947 245° Southwest  Level FlightAware Approximate
Thu 01:32:00 AM 38.0283 146.6462 245° Southwest  Level FlightAware Approximate
Thu 01:33:00 AM 37.9728 146.4979 245° Southwest  Level FlightAware Approximate
Thu 01:34:00 AM 37.9170 146.3498 245° Southwest  Level FlightAware Approximate
Thu 01:34:08 AM 37.5800 146.4380 245° Southwest 452 520 41,000  Level FlightAware ADS-B
Thu 01:34:53 AM 37.5340 146.3460 238° Southwest 453 521 41,000  Level FlightAware ADS-B
Thu 01:35:23 AM 37.4940 146.2630 239° Southwest 453 521 41,000  Level FlightAware ADS-B
Thu 01:35:59 AM 37.4570 146.1880 238° Southwest 453 521 41,000  Level FlightAware ADS-B
Thu 01:36:33 AM 37.4160 146.1060 238° Southwest 455 524 41,000  Level FlightAware ADS-B
Thu 01:37:23 AM 37.3600 145.9920 238° Southwest 455 524 41,000  Level FlightAware ADS-B
Thu 01:38:00 AM 37.3230 145.9170 238° Southwest 457 526 41,000  Level FlightAware ADS-B
Thu 01:38:48 AM 37.2650 145.8010 238° Southwest 458 527 41,000  Level FlightAware ADS-B
Thu 01:39:28 AM 37.2220 145.7150 238° Southwest 458 527 41,000  Level FlightAware ADS-B
Thu 01:40:10 AM 37.1920 145.6110 250° West 442 509 41,000  Level FlightAware ADS-B
Thu 01:40:28 AM 37.1870 145.5710 261° West 458 527 41,000  Level FlightAware ADS-B
Thu 01:41:05 AM 37.1520 145.5000 238° Southwest 458 527 41,000  Level FlightAware ADS-B
Thu 01:41:13 AM 37.1720 145.4580 301° West 443 510 41,000  Level FlightAware ADS-B
Thu 01:41:50 AM 37.1520 145.3700 254° West 443 510 41,000  Level FlightAware ADS-B
Thu 01:42:05 AM 37.1250 145.3300 230° Southwest 452 520 41,000  Level FlightAware ADS-B
Thu 01:42:36 AM 37.0950 145.2620 241° Southwest 452 520 41,000  Level FlightAware ADS-B
Thu 01:43:15 AM 37.0550 145.1700 241° Southwest 450 518 41,000  Level FlightAware ADS-B
Thu 01:43:48 AM 37.0250 145.1000 242° Southwest 455 524 41,000  Level FlightAware ADS-B
Thu 01:44:32 AM 36.9850 145.0070 242° Southwest 455 524 41,000  Level FlightAware ADS-B
Thu 01:45:05 AM 36.9450 144.9150 241° Southwest 453 521 41,000  Level FlightAware ADS-B
Thu 01:45:43 AM 36.9070 144.8270 242° Southwest 458 527 41,000 -493 Level FlightAware ADS-B
Thu 01:46:18 AM 36.8720 144.7490 241° Southwest 458 527 40,400 -1,169 Descending FlightAware ADS-B
Thu 01:47:00 AM 36.8290 144.6500 242° Southwest 452 520 39,500 -1,333 Descending FlightAware ADS-B
Thu 01:47:39 AM 36.7900 144.5600 242° Southwest 456 525 38,600 -1,462 Descending FlightAware ADS-B
Thu 01:48:18 AM 36.7490 144.4680 241° Southwest 457 526 37,600 -1,481 Descending FlightAware ADS-B
Thu 01:49:00 AM 36.7070 144.3740 241° Southwest 461 531 36,600 -1,140 Descending FlightAware ADS-B
Thu 01:49:58 AM 36.6510 144.2460 241° Southwest 465 535 35,700 -1,579 Descending FlightAware ADS-B
Thu 01:50:35 AM 36.6070 144.1480 241° Southwest 471 542 34,100 -1,417 Descending FlightAware ADS-B
Thu 01:51:10 AM 36.5700 144.0650 241° Southwest 473 544 34,000 -86 Descending FlightAware ADS-B
Thu 01:51:45 AM 36.5330 143.9820 241° Southwest 474 545 34,000  Level FlightAware ADS-B
Thu 01:52:20 AM 36.4950 143.8990 240° Southwest 472 543 34,000  Level FlightAware ADS-B
Thu 01:52:55 AM 36.4600 143.8210 241° Southwest 472 543 34,000  Level FlightAware ADS-B
Thu 01:53:30 AM 36.4200 143.7320 241° Southwest 472 543 34,000  Level FlightAware ADS-B
Thu 01:54:05 AM 36.3840 143.6520 241° Southwest 473 544 34,000  Level FlightAware ADS-B
Thu 01:54:45 AM 36.3390 143.5530 241° Southwest 474 545 34,000 -80 Level FlightAware ADS-B
Thu 01:55:20 AM 36.3030 143.4730 241° Southwest 477 549 33,900 -600 Descending FlightAware ADS-B
Thu 01:55:55 AM 36.2700 143.3900 244° Southwest 473 544 33,300 -1,286 Descending FlightAware ADS-B
Thu 01:56:30 AM 36.2360 143.2960 246° West 480 552 32,400 -1,543 Descending FlightAware ADS-B
Thu 01:57:05 AM 36.2050 143.2100 246° West 483 556 31,500 -1,775 Descending FlightAware ADS-B
Thu 01:57:41 AM 36.1730 143.1220 246° West 490 564 30,300 -1,200 Descending FlightAware ADS-B
Thu 01:58:20 AM 36.1330 143.0130 246° West 508 585 30,000 -261 Descending FlightAware ADS-B
Thu 01:58:50 AM 36.1050 142.9340 246° West 505 581 30,000  Level FlightAware ADS-B
Thu 01:59:25 AM 36.0710 142.8430 245° Southwest 504 580 30,000  Level FlightAware ADS-B
Thu 02:00:00 AM 36.0380 142.7520 246° West 502 578 30,000  Level FlightAware ADS-B
Thu 02:00:35 AM 36.0050 142.6610 246° West 497 572 30,000  Level FlightAware ADS-B
Thu 02:01:15 AM 35.9690 142.5640 245° Southwest 494 568 30,000  Level FlightAware ADS-B
Thu 02:02:00 AM 35.9240 142.4400 246° West 491 565 30,000 -525 Level FlightAware ADS-B
Thu 02:02:35 AM 35.9040 142.3460 255° West 490 564 29,300 -1,629 Descending FlightAware ADS-B
Thu 02:03:10 AM 35.9010 142.2460 268° West 500 575 28,100 -1,886 Descending FlightAware ADS-B
Thu 02:03:45 AM 35.8970 142.1470 267° West 506 582 27,100 -1,714 Descending FlightAware ADS-B
Thu 02:04:20 AM 35.8940 142.0460 268° West 509 586 26,100 -1,286 Descending FlightAware ADS-B
Thu 02:04:55 AM 35.8910 141.9450 268° West 503 579 25,600 -960 Descending FlightAware ADS-B
Thu 02:05:35 AM 35.8870 141.8310 268° West 497 572 24,900 -1,059 Descending FlightAware ADS-B
Thu 02:06:20 AM 35.8820 141.7060 267° West 492 566 24,100 -1,050 Descending FlightAware ADS-B
Thu 02:06:55 AM 35.8790 141.6060 268° West 489 563 23,500 -1,114 Descending FlightAware ADS-B
Thu 02:07:30 AM 35.8750 141.5110 267° West 464 534 22,800 -1,333 Descending FlightAware ADS-B
Thu 02:08:07 AM 35.8730 141.4620 267° West 447 514 21,900 -3,385 Descending FlightAware ADS-B
Thu 02:08:48 AM 35.8680 141.3240 267° West 409 471 18,400 -4,732 Descending FlightAware ADS-B
Thu 02:09:18 AM 35.8660 141.2530 268° West 398 458 16,300 -4,286 Descending FlightAware ADS-B
Thu 02:09:58 AM 35.8620 141.1620 267° West 390 449 13,400 -3,649 Descending FlightAware ADS-B
Thu 02:10:32 AM 35.8590 141.0870 267° West 359 413 11,800 -2,087 Descending FlightAware ADS-B
Thu 02:11:07 AM 35.8560 141.0230 267° West 299 344 11,000 -1,099 Descending FlightAware ADS-B
Thu 02:11:43 AM 35.8540 140.9690 267° West 270 311 10,500 -676 Descending FlightAware ADS-B
Thu 02:12:18 AM 35.8610 140.9180 280° West 261 300 10,200 -764 Descending FlightAware ADS-B
Thu 02:12:38 AM 35.8730 140.8910 299° West 254 292 9,800 -1,050 Descending FlightAware ADS-B
Thu 02:12:58 AM 35.8830 140.8660 296° West 251 289 9,500 -878 Descending FlightAware ADS-B
Thu 02:13:19 AM 35.8950 140.8400 300° West 246 283 9,200 -1,029 Descending FlightAware ADS-B
Thu 02:13:33 AM 35.9030 140.8210 297° West 249 287 8,900 -1,235 Descending FlightAware ADS-B
Thu 02:13:53 AM 35.9140 140.7970 300° West 248 285 8,500 -1,200 Descending FlightAware ADS-B
Thu 02:14:13 AM 35.9250 140.7710 298° West 248 285 8,100 -1,371 Descending FlightAware ADS-B
Thu 02:14:28 AM 35.9330 140.7530 299° West 246 283 7,700 -1,350 Descending FlightAware ADS-B
Thu 02:14:53 AM 35.9470 140.7210 298° West 248 285 7,200 -800 Descending FlightAware ADS-B
Thu 02:15:13 AM 35.9580 140.6960 299° West 248 285 7,100 -150 Descending FlightAware ADS-B
Thu 02:15:33 AM 35.9690 140.6700 298° West 249 287 7,100  Level FlightAware ADS-B
Thu 02:15:53 AM 35.9800 140.6460 300° West 247 284 7,100  Level FlightAware ADS-B
Thu 02:16:13 AM 35.9910 140.6210 299° West 250 288 7,100 -150 Level FlightAware ADS-B
Thu 02:16:33 AM 36.0020 140.5950 298° West 250 288 7,000 -514 Descending FlightAware ADS-B
Thu 02:16:48 AM 36.0100 140.5760 298° West 250 288 6,800 -900 Descending FlightAware ADS-B
Thu 02:17:13 AM 36.0240 140.5440 298° West 249 287 6,400 -933 Descending FlightAware ADS-B
Thu 02:17:33 AM 36.0350 140.5190 299° West 254 292 6,100 -450 Descending FlightAware ADS-B
Thu 02:17:53 AM 36.0460 140.4930 298° West 250 288 6,100  Level FlightAware ADS-B
Thu 02:18:08 AM 36.0550 140.4730 299° West 250 288 6,100  Level FlightAware ADS-B
Thu 02:18:28 AM 36.0650 140.4500 298° West 239 275 6,100  Level FlightAware ADS-B
Thu 02:18:43 AM 36.0710 140.4370 300° West 229 264 6,100  Level FlightAware ADS-B
Thu 02:19:17 AM 36.0900 140.3910 297° West 232 267 6,100  Level FlightAware ADS-B
Thu 02:19:38 AM 36.1010 140.3660 299° West 231 266 6,100  Level FlightAware ADS-B
Thu 02:19:54 AM 36.1090 140.3480 299° West 230 265 6,100  Level FlightAware ADS-B
Thu 02:20:15 AM 36.1180 140.3240 295° West 213 245 6,100  Level FlightAware ADS-B
Thu 02:20:27 AM 36.1200 140.3090 279° West 205 236 6,100 -308 Level FlightAware ADS-B
Thu 02:20:54 AM 36.1200 140.2850 270° West 200 230 5,900 -938 Descending FlightAware ADS-B
Thu 02:21:31 AM 36.1200 140.2340 270° West 206 237 5,100 -1,245 Descending FlightAware ADS-B
Thu 02:21:47 AM 36.1170 140.2160 258° West 208 239 4,800 -889 Descending FlightAware ADS-B
Thu 02:21:58 AM 36.1130 140.2040 248° West 209 241 4,700 -900 Descending FlightAware ADS-B
Thu 02:22:07 AM 36.1080 140.1950 235° Southwest 209 241 4,500 -1,143 Descending FlightAware ADS-B
Thu 02:22:19 AM 36.0990 140.1860 219° Southwest 210 242 4,300 -900 Descending FlightAware ADS-B
Thu 02:22:27 AM 36.0920 140.1820 205° Southwest 209 241 4,200 -750 Descending FlightAware ADS-B
Thu 02:22:35 AM 36.0840 140.1790 197° South 207 238 4,100 -375 Descending FlightAware ADS-B
Thu 02:22:43 AM 36.0760 140.1770 191° South 207 238 4,100  Level FlightAware ADS-B
Thu 02:23:03 AM 36.0570 140.1770 180° South 207 238 4,100  Level FlightAware ADS-B
Thu 02:23:38 AM 36.0280 140.1840 169° South 213 245 4,100  Level FlightAware ADS-B
Thu 02:23:53 AM 36.0140 140.1940 150° Southeast 214 246 4,100  Level FlightAware ADS-B
Thu 02:24:18 AM 35.9920 140.2100 150° Southeast 212 244 4,100  Level FlightAware ADS-B
Thu 02:24:32 AM 35.9800 140.2190 149° Southeast 210 242 4,100  Level FlightAware ADS-B
Thu 02:24:53 AM 35.9620 140.2320 150° Southeast 209 241 4,100 -150 Level FlightAware ADS-B
Thu 02:25:12 AM 35.9460 140.2440 149° Southeast 198 228 4,000 -769 Descending FlightAware ADS-B
Thu 02:25:32 AM 35.9310 140.2550 149° Southeast 199 229 3,600 -1,200 Descending FlightAware ADS-B
Thu 02:25:52 AM 35.9150 140.2660 151° Southeast 190 219 3,200 -900 Descending FlightAware ADS-B
Thu 02:26:12 AM 35.9020 140.2760 148° Southeast 175 201 3,000 -900 Descending FlightAware ADS-B
Thu 02:26:32 AM 35.8880 140.2860 150° Southeast 156 180 2,600 -968 Descending FlightAware ADS-B
Thu 02:26:43 AM 35.8810 140.2910 150° Southeast 147 169 2,500 -667 Descending FlightAware ADS-B
Thu 02:27:08 AM 35.8680 140.3010 148° Southeast 142 163 2,200 -750 Descending FlightAware ADS-B
Thu 02:27:23 AM 35.8590 140.3070 152° Southeast 142 163 2,000 -686 Descending FlightAware ADS-B
Thu 02:27:43 AM 35.8470 140.3160 149° Southeast 144 166 1,800 -750 Descending FlightAware ADS-B
Thu 02:28:03 AM 35.8360 140.3240 149° Southeast 144 166 1,500 -769 Descending FlightAware ADS-B
Thu 02:28:22 AM 35.8260 140.3310 150° Southeast 143 165 1,300 -667 Descending FlightAware ADS-B
Thu 02:28:48 AM 35.8110 140.3420 149° Southeast 145 167 1,000 -706 Descending FlightAware ADS-B
Thu 02:29:13 AM 35.7950 140.3530 151° Southeast 145 167 700 -667 Descending FlightAware ADS-B
Thu 02:29:33 AM 35.7840 140.3610 149° Southeast 144 166 500 -333 Descending FlightAware ADS-B
Thu 02:30:07 AM 35.7660 140.3750 148° Southeast 145 167 400 -176 Descending FlightAware ADS-B
Thu 02:32:00 AM 35.7647 140.3864 253° West  Level Estimated
Thu 02:33:00 AM 35.7647 140.3864 253° West  Level Estimated
Thu 02:34:00 AM 35.7647 140.3864 253° West  Level Estimated
Thu 02:35:00 AM 35.7647 140.3864 253° West  Level Estimated
Thu 02:36:00 AM 35.7647 140.3864 253° West  Level Estimated
Thu 02:37:00 AM 35.7647 140.3864 253° West  Level Estimated
Thu 02:38:00 AM 35.7647 140.3864 253° West  Level Estimated
Thu 02:39:00 AM 35.7647 140.3864 253° West  Level Estimated
Thu 02:40:00 AM 35.7647 140.3864 253° West  Level Estimated
Thu 02:41:00 AM 35.7647 140.3864 253° West  Level Estimated
Thu 02:42:00 AM 35.7647 140.3864 253° West  Level Estimated
Thu 02:43:00 AM 35.7647 140.3864 253° West  Level Estimated
Thu 02:44:00 AM 35.7647 140.3864 253° West  Level Estimated
Thu 02:45:00 AM 35.7647 140.3864 253° West  Level Estimated

Login

Don't have an account? Register now (free) for customized features, flight alerts, and more!